<?xml version='1.0' encoding='UTF-8'?><gpx version="1.1" creator="JPX - https://github.com/jenetics/jpx" xmlns="http://www.topografix.com/GPX/1/1"><trk><trkseg><trkpt lat="44.93055457405149" lon="9.024184987954609"><ele>156.83333333333334</ele><time>2026-04-19T12:00:39.997Z</time></trkpt><trkpt lat="44.93056514844929" lon="9.02408355321547"><ele>156.66666666666669</ele><time>2026-04-19T12:00:40.997Z</time></trkpt><trkpt lat="44.930555854181534" lon="9.023973829582147"><ele>156.5</ele><time>2026-04-19T12:00:44Z</time></trkpt><trkpt lat="44.93056270959847" lon="9.023821559058925"><ele>156.33333333333334</ele><time>2026-04-19T12:00:46Z</time></trkpt><trkpt lat="44.93057246013229" lon="9.023729504858604"><ele>156.16666666666666</ele><time>2026-04-19T12:00:47Z</time></trkpt><trkpt lat="44.930585852578666" lon="9.023601601345575"><ele>156.0</ele><time>2026-04-19T12:00:49Z</time></trkpt><trkpt lat="44.93059646060709" lon="9.023456908588935"><ele>156.0</ele><time>2026-04-19T12:00:51Z</time></trkpt><trkpt lat="44.93060689622364" lon="9.02335293006589"><ele>156.0</ele><time>2026-04-19T12:00:52Z</time></trkpt><trkpt lat="44.93061414628834" lon="9.023260009839795"><ele>156.0</ele><time>2026-04-19T12:00:53Z</time></trkpt><trkpt lat="44.93066221128093" lon="9.023114461334998"><ele>156.0</ele><time>2026-04-19T12:00:55Z</time></trkpt><trkpt lat="44.93067102482863" lon="9.02300143665315"><ele>156.0</ele><time>2026-04-19T12:00:56Z</time></trkpt><trkpt lat="44.930677748453505" lon="9.022883587239559"><ele>156.0</ele><time>2026-04-19T12:00:57Z</time></trkpt><trkpt lat="44.93068142273178" lon="9.022777226552014"><ele>155.6</ele><time>2026-04-19T12:00:58Z</time></trkpt><trkpt lat="44.930683307149955" lon="9.022673665258981"><ele>155.2</ele><time>2026-04-19T12:00:59Z</time></trkpt><trkpt lat="44.93067120817773" lon="9.022583061097496"><ele>154.8</ele><time>2026-04-19T12:01:00Z</time></trkpt><trkpt lat="44.93047441447001" lon="9.022503102856787"><ele>154.4</ele><time>2026-04-19T12:01:03Z</time></trkpt><trkpt lat="44.93039354642046" lon="9.022506203029327"><ele>154.0</ele><time>2026-04-19T12:01:04Z</time></trkpt><trkpt lat="44.93031963513358" lon="9.022486156756564"><ele>153.66666666666669</ele><time>2026-04-19T12:01:05Z</time></trkpt><trkpt lat="44.9302652491396" lon="9.022389520710144"><ele>153.33333333333334</ele><time>2026-04-19T12:01:06Z</time></trkpt><trkpt lat="44.93021821844044" lon="9.022291164703717"><ele>153.0</ele><time>2026-04-19T12:01:07Z</time></trkpt><trkpt lat="44.93021397191881" lon="9.022177959594925"><ele>152.66666666666666</ele><time>2026-04-19T12:01:08Z</time></trkpt><trkpt lat="44.93020741616005" lon="9.022054709005005"><ele>152.33333333333331</ele><time>2026-04-19T12:01:09Z</time></trkpt><trkpt lat="44.930199513919284" lon="9.021932759048967"><ele>152.0</ele><time>2026-04-19T12:01:10Z</time></trkpt><trkpt lat="44.93019092540711" lon="9.021800521396605"><ele>152.0</ele><time>2026-04-19T12:01:11Z</time></trkpt><trkpt lat="44.93018145210144" lon="9.02167462917831"><ele>152.0</ele><time>2026-04-19T12:01:12Z</time></trkpt><trkpt lat="44.93017197408461" lon="9.021548674320382"><ele>152.0</ele><time>2026-04-19T12:01:13Z</time></trkpt><trkpt lat="44.93016133294537" lon="9.021407262537263"><ele>152.0</ele><time>2026-04-19T12:01:14Z</time></trkpt><trkpt lat="44.93015247077039" lon="9.02128122225586"><ele>152.0</ele><time>2026-04-19T12:01:14.999Z</time></trkpt><trkpt lat="44.93014460699175" lon="9.021161196490198"><ele>151.79999999999998</ele><time>2026-04-19T12:01:15.999Z</time></trkpt><trkpt lat="44.93013945576208" lon="9.021064579538457"><ele>151.6</ele><time>2026-04-19T12:01:16.999Z</time></trkpt><trkpt lat="44.93013128751507" lon="9.020911375084626"><ele>151.39999999999998</ele><time>2026-04-19T12:01:18.999Z</time></trkpt><trkpt lat="44.930121385059635" lon="9.020725643689374"><ele>151.2</ele><time>2026-04-19T12:01:20.999Z</time></trkpt><trkpt lat="44.93011422956796" lon="9.02062308488488"><ele>151.0</ele><time>2026-04-19T12:01:21.999Z</time></trkpt><trkpt lat="44.93010711816067" lon="9.020527211260582"><ele>150.83333333333334</ele><time>2026-04-19T12:01:22.999Z</time></trkpt><trkpt lat="44.930083791919756" lon="9.020379371719663"><ele>150.66666666666669</ele><time>2026-04-19T12:01:24.999Z</time></trkpt><trkpt lat="44.930091043453395" lon="9.020286567130123"><ele>150.5</ele><time>2026-04-19T12:01:25.999Z</time></trkpt><trkpt lat="44.93009712459193" lon="9.020186111588155"><ele>150.33333333333334</ele><time>2026-04-19T12:01:26.999Z</time></trkpt><trkpt lat="44.93010275329673" lon="9.020081120406823"><ele>150.16666666666666</ele><time>2026-04-19T12:01:27.999Z</time></trkpt><trkpt lat="44.93005792390968" lon="9.019970279098121"><ele>150.0</ele><time>2026-04-19T12:01:28.999Z</time></trkpt><trkpt lat="44.93003729002997" lon="9.019842981566343"><ele>150.2</ele><time>2026-04-19T12:01:29.999Z</time></trkpt><trkpt lat="44.930028886964635" lon="9.019711712740916"><ele>150.4</ele><time>2026-04-19T12:01:30.999Z</time></trkpt><trkpt lat="44.93002685055284" lon="9.019572239876032"><ele>150.6</ele><time>2026-04-19T12:01:31.999Z</time></trkpt><trkpt lat="44.93001949838622" lon="9.019431916650884"><ele>150.8</ele><time>2026-04-19T12:01:32.999Z</time></trkpt><trkpt lat="44.9300081903504" lon="9.019290480192561"><ele>151.0</ele><time>2026-04-19T12:01:33.999Z</time></trkpt><trkpt lat="44.92999719459774" lon="9.019148101792897"><ele>151.0</ele><time>2026-04-19T12:01:34.999Z</time></trkpt><trkpt lat="44.92998693745215" lon="9.01900358571526"><ele>151.0</ele><time>2026-04-19T12:01:35.999Z</time></trkpt><trkpt lat="44.92997758005647" lon="9.018863053279706"><ele>151.0</ele><time>2026-04-19T12:01:36.999Z</time></trkpt><trkpt lat="44.92996710607806" lon="9.01871911935721"><ele>151.0</ele><time>2026-04-19T12:01:37.999Z</time></trkpt><trkpt lat="44.92995659768295" lon="9.018575354667261"><ele>151.0</ele><time>2026-04-19T12:01:38.999Z</time></trkpt><trkpt lat="44.92994825683506" lon="9.018429971935008"><ele>151.6</ele><time>2026-04-19T12:01:39.999Z</time></trkpt><trkpt lat="44.929938467104336" lon="9.018280883285744"><ele>152.2</ele><time>2026-04-19T12:01:40.999Z</time></trkpt><trkpt lat="44.92992860852613" lon="9.01813243999746"><ele>152.8</ele><time>2026-04-19T12:01:41.999Z</time></trkpt><trkpt lat="44.92992459416993" lon="9.01800160281548"><ele>153.4</ele><time>2026-04-19T12:01:42.999Z</time></trkpt><trkpt lat="44.92991494420425" lon="9.017841083352483"><ele>154.0</ele><time>2026-04-19T12:01:43.999Z</time></trkpt><trkpt lat="44.929902477294725" lon="9.017691393746418"><ele>154.0</ele><time>2026-04-19T12:01:44.999Z</time></trkpt><trkpt lat="44.92988997219401" lon="9.017543092785557"><ele>154.0</ele><time>2026-04-19T12:01:45.999Z</time></trkpt><trkpt lat="44.929877934933934" lon="9.017393657409318"><ele>154.0</ele><time>2026-04-19T12:01:46.999Z</time></trkpt><trkpt lat="44.92986915122487" lon="9.017246682584027"><ele>154.0</ele><time>2026-04-19T12:01:47.999Z</time></trkpt><trkpt lat="44.92985818233215" lon="9.017102185887481"><ele>154.0</ele><time>2026-04-19T12:01:48.999Z</time></trkpt><trkpt lat="44.929860973598444" lon="9.016955985925746"><ele>154.2</ele><time>2026-04-19T12:01:49.999Z</time></trkpt><trkpt lat="44.9298341656316" lon="9.016825333741165"><ele>154.4</ele><time>2026-04-19T12:01:50.999Z</time></trkpt><trkpt lat="44.92983354768401" lon="9.016694901936596"><ele>154.6</ele><time>2026-04-19T12:01:51.999Z</time></trkpt><trkpt lat="44.929819633334304" lon="9.016568842742593"><ele>154.8</ele><time>2026-04-19T12:01:52.999Z</time></trkpt><trkpt lat="44.929807704508825" lon="9.01644008326869"><ele>155.0</ele><time>2026-04-19T12:01:53.998Z</time></trkpt><trkpt lat="44.929799043125946" lon="9.016309940090155"><ele>155.0</ele><time>2026-04-19T12:01:54.998Z</time></trkpt><trkpt lat="44.929790772350565" lon="9.016183137493094"><ele>155.0</ele><time>2026-04-19T12:01:55.998Z</time></trkpt><trkpt lat="44.92978831502925" lon="9.016072357310142"><ele>155.0</ele><time>2026-04-19T12:01:56.998Z</time></trkpt><trkpt lat="44.929777074354135" lon="9.01595819173982"><ele>155.0</ele><time>2026-04-19T12:01:57.998Z</time></trkpt><trkpt lat="44.9297602772732" lon="9.015836965622823"><ele>155.0</ele><time>2026-04-19T12:01:58.998Z</time></trkpt><trkpt lat="44.92974805802027" lon="9.015725224945697"><ele>155.0</ele><time>2026-04-19T12:01:59.998Z</time></trkpt><trkpt lat="44.92973840871604" lon="9.015606200252614"><ele>155.0</ele><time>2026-04-19T12:02:00.998Z</time></trkpt><trkpt lat="44.92973958626056" lon="9.015490543475199"><ele>155.0</ele><time>2026-04-19T12:02:01.998Z</time></trkpt><trkpt lat="44.92972702989269" lon="9.015303383450785"><ele>155.0</ele><time>2026-04-19T12:02:03.998Z</time></trkpt><trkpt lat="44.92971810180994" lon="9.015205995477269"><ele>155.0</ele><time>2026-04-19T12:02:04.998Z</time></trkpt><trkpt lat="44.92970737267716" lon="9.01510390894082"><ele>155.0</ele><time>2026-04-19T12:02:05.998Z</time></trkpt><trkpt lat="44.92966545037398" lon="9.014980333856572"><ele>155.0</ele><time>2026-04-19T12:02:07.998Z</time></trkpt><trkpt lat="44.92959679909182" lon="9.014871024100033"><ele>155.0</ele><time>2026-04-19T12:02:09.998Z</time></trkpt><trkpt lat="44.92948280663301" lon="9.014972044211367"><ele>155.0</ele><time>2026-04-19T12:02:10.998Z</time></trkpt><trkpt lat="44.929415643814835" lon="9.015007546428729"><ele>155.0</ele><time>2026-04-19T12:02:11.998Z</time></trkpt><trkpt lat="44.929343570172136" lon="9.015040220960966"><ele>155.0</ele><time>2026-04-19T12:02:12.998Z</time></trkpt><trkpt lat="44.92926050517299" lon="9.015050428812602"><ele>155.0</ele><time>2026-04-19T12:02:13.998Z</time></trkpt><trkpt lat="44.92916661748998" lon="9.015064383585294"><ele>155.0</ele><time>2026-04-19T12:02:14.998Z</time></trkpt><trkpt lat="44.92907554500167" lon="9.015078407118505"><ele>155.0</ele><time>2026-04-19T12:02:15.998Z</time></trkpt><trkpt lat="44.92897801987102" lon="9.01509520241482"><ele>155.0</ele><time>2026-04-19T12:02:16.998Z</time></trkpt><trkpt lat="44.92888892403141" lon="9.01510657972024"><ele>155.0</ele><time>2026-04-19T12:02:17.998Z</time></trkpt><trkpt lat="44.92880182429343" lon="9.015121408658207"><ele>155.0</ele><time>2026-04-19T12:02:18.998Z</time></trkpt><trkpt lat="44.92871666305891" lon="9.015139902912393"><ele>155.0</ele><time>2026-04-19T12:02:19.998Z</time></trkpt><trkpt lat="44.92862432190507" lon="9.015153435618672"><ele>155.0</ele><time>2026-04-19T12:02:20.998Z</time></trkpt><trkpt lat="44.92852565192412" lon="9.015158671934362"><ele>155.0</ele><time>2026-04-19T12:02:21.998Z</time></trkpt><trkpt lat="44.92844500255639" lon="9.01515028422672"><ele>155.0</ele><time>2026-04-19T12:02:22.998Z</time></trkpt><trkpt lat="44.9283342331156" lon="9.015137773920873"><ele>155.0</ele><time>2026-04-19T12:02:24.998Z</time></trkpt><trkpt lat="44.92827047087457" lon="9.015130178313074"><ele>155.0</ele><time>2026-04-19T12:02:25.998Z</time></trkpt><trkpt lat="44.92819872488853" lon="9.015070467269666"><ele>155.0</ele><time>2026-04-19T12:02:26.998Z</time></trkpt><trkpt lat="44.92812701511377" lon="9.015029074976965"><ele>155.0</ele><time>2026-04-19T12:02:27.998Z</time></trkpt><trkpt lat="44.92806635947788" lon="9.0149864382242"><ele>155.0</ele><time>2026-04-19T12:02:28.998Z</time></trkpt><trkpt lat="44.927992232322566" lon="9.014931855590776"><ele>155.0</ele><time>2026-04-19T12:02:30.998Z</time></trkpt><trkpt lat="44.92788264943954" lon="9.014873466054365"><ele>155.0</ele><time>2026-04-19T12:02:32.998Z</time></trkpt><trkpt lat="44.9278241591388" lon="9.014805911373877"><ele>155.0</ele><time>2026-04-19T12:02:33.997Z</time></trkpt><trkpt lat="44.92776172847528" lon="9.014758402319828"><ele>155.0</ele><time>2026-04-19T12:02:34.997Z</time></trkpt><trkpt lat="44.92769911358606" lon="9.014714525840434"><ele>155.0</ele><time>2026-04-19T12:02:35.997Z</time></trkpt><trkpt lat="44.92759437762489" lon="9.01465919002916"><ele>155.0</ele><time>2026-04-19T12:02:37.997Z</time></trkpt><trkpt lat="44.92750527023306" lon="9.014623006033032"><ele>155.0</ele><time>2026-04-19T12:02:39.997Z</time></trkpt><trkpt lat="44.927455130160816" lon="9.014545016857426"><ele>155.0</ele><time>2026-04-19T12:02:42.997Z</time></trkpt><trkpt lat="44.92740102976486" lon="9.014466609161849"><ele>155.0</ele><time>2026-04-19T12:03:07Z</time></trkpt><trkpt lat="44.927361252389915" lon="9.014376297789203"><ele>155.0</ele><time>2026-04-19T12:03:08Z</time></trkpt><trkpt lat="44.927323035591385" lon="9.014247569726365"><ele>155.0</ele><time>2026-04-19T12:03:08.999Z</time></trkpt><trkpt lat="44.92727313327438" lon="9.014122653884247"><ele>155.0</ele><time>2026-04-19T12:03:09.999Z</time></trkpt><trkpt lat="44.927217743021096" lon="9.013986180810898"><ele>155.25</ele><time>2026-04-19T12:03:10.999Z</time></trkpt><trkpt lat="44.92715825232928" lon="9.013839654555618"><ele>155.5</ele><time>2026-04-19T12:03:11.999Z</time></trkpt><trkpt lat="44.927099612037026" lon="9.013691883863336"><ele>155.75</ele><time>2026-04-19T12:03:12.999Z</time></trkpt><trkpt lat="44.927037471531555" lon="9.013534578364213"><ele>156.0</ele><time>2026-04-19T12:03:13.999Z</time></trkpt><trkpt lat="44.92697645477894" lon="9.013380274079056"><ele>155.75</ele><time>2026-04-19T12:03:14.999Z</time></trkpt><trkpt lat="44.92691845673225" lon="9.0132330145158"><ele>155.5</ele><time>2026-04-19T12:03:15.999Z</time></trkpt><trkpt lat="44.926860719470604" lon="9.01308571216177"><ele>155.25</ele><time>2026-04-19T12:03:16.999Z</time></trkpt><trkpt lat="44.926801759938364" lon="9.012935291492772"><ele>155.0</ele><time>2026-04-19T12:03:17.999Z</time></trkpt><trkpt lat="44.92674482915971" lon="9.012791710577476"><ele>155.4</ele><time>2026-04-19T12:03:18.999Z</time></trkpt><trkpt lat="44.92668931080736" lon="9.012653415609398"><ele>155.8</ele><time>2026-04-19T12:03:19.999Z</time></trkpt><trkpt lat="44.92663701607624" lon="9.012523150664432"><ele>156.2</ele><time>2026-04-19T12:03:20.999Z</time></trkpt><trkpt lat="44.92658976420537" lon="9.012406758024566"><ele>156.6</ele><time>2026-04-19T12:03:21.999Z</time></trkpt><trkpt lat="44.92653945735873" lon="9.012282773987465"><ele>157.0</ele><time>2026-04-19T12:03:22.999Z</time></trkpt><trkpt lat="44.92648920041139" lon="9.01215845732363"><ele>157.0</ele><time>2026-04-19T12:03:23.999Z</time></trkpt><trkpt lat="44.92644690595005" lon="9.01205030325207"><ele>157.0</ele><time>2026-04-19T12:03:24.999Z</time></trkpt><trkpt lat="44.92633215526794" lon="9.011988352556408"><ele>157.0</ele><time>2026-04-19T12:03:25.999Z</time></trkpt><trkpt lat="44.926241368757196" lon="9.011905868452718"><ele>157.0</ele><time>2026-04-19T12:03:26.999Z</time></trkpt><trkpt lat="44.92615033360208" lon="9.011823877290642"><ele>157.0</ele><time>2026-04-19T12:03:27.999Z</time></trkpt><trkpt lat="44.92605623799021" lon="9.011740075457832"><ele>156.75</ele><time>2026-04-19T12:03:28.999Z</time></trkpt><trkpt lat="44.925958125428906" lon="9.011656173537876"><ele>156.5</ele><time>2026-04-19T12:03:29.999Z</time></trkpt><trkpt lat="44.925853737987964" lon="9.011580207687874"><ele>156.25</ele><time>2026-04-19T12:03:30.999Z</time></trkpt><trkpt lat="44.92575065308665" lon="9.01151029421948"><ele>156.0</ele><time>2026-04-19T12:03:31.999Z</time></trkpt><trkpt lat="44.92564769703241" lon="9.011442844337468"><ele>156.4</ele><time>2026-04-19T12:03:32.999Z</time></trkpt><trkpt lat="44.925543493935336" lon="9.011385060066763"><ele>156.8</ele><time>2026-04-19T12:03:33.999Z</time></trkpt><trkpt lat="44.925436477233575" lon="9.01134121493168"><ele>157.20000000000002</ele><time>2026-04-19T12:03:34.999Z</time></trkpt><trkpt lat="44.925331639478365" lon="9.011310638714155"><ele>157.6</ele><time>2026-04-19T12:03:35.999Z</time></trkpt><trkpt lat="44.92522488937212" lon="9.011288239281738"><ele>158.0</ele><time>2026-04-19T12:03:36.999Z</time></trkpt><trkpt lat="44.92511457495197" lon="9.011274991592519"><ele>158.20000000000002</ele><time>2026-04-19T12:03:37.999Z</time></trkpt><trkpt lat="44.92500738938602" lon="9.01126770605781"><ele>158.4</ele><time>2026-04-19T12:03:38.999Z</time></trkpt><trkpt lat="44.924897657901504" lon="9.011258410092333"><ele>158.60000000000002</ele><time>2026-04-19T12:03:39.999Z</time></trkpt><trkpt lat="44.9247942987142" lon="9.011245988142475"><ele>158.8</ele><time>2026-04-19T12:03:40.999Z</time></trkpt><trkpt lat="44.92467862536128" lon="9.011205783818562"><ele>159.0</ele><time>2026-04-19T12:03:41.999Z</time></trkpt><trkpt lat="44.924570394652775" lon="9.011189473402766"><ele>159.0</ele><time>2026-04-19T12:03:42.999Z</time></trkpt><trkpt lat="44.924456490688605" lon="9.011171600378175"><ele>159.0</ele><time>2026-04-19T12:03:43.999Z</time></trkpt><trkpt lat="44.92433360747319" lon="9.011152531126516"><ele>159.0</ele><time>2026-04-19T12:03:44.999Z</time></trkpt><trkpt lat="44.924218179676465" lon="9.011154705311055"><ele>159.0</ele><time>2026-04-19T12:03:45.999Z</time></trkpt><trkpt lat="44.92409874083528" lon="9.01111133235828"><ele>159.5</ele><time>2026-04-19T12:03:46.999Z</time></trkpt><trkpt lat="44.92398474714081" lon="9.011102895815116"><ele>160.0</ele><time>2026-04-19T12:03:47.999Z</time></trkpt><trkpt lat="44.92386527261163" lon="9.01106785445799"><ele>160.5</ele><time>2026-04-19T12:03:48.999Z</time></trkpt><trkpt lat="44.92374471570467" lon="9.01106897323185"><ele>161.0</ele><time>2026-04-19T12:03:49.999Z</time></trkpt><trkpt lat="44.9236296505981" lon="9.01103892800909"><ele>161.0</ele><time>2026-04-19T12:03:50.999Z</time></trkpt><trkpt lat="44.923513058799124" lon="9.01105591899064"><ele>161.0</ele><time>2026-04-19T12:03:51.999Z</time></trkpt><trkpt lat="44.92339868551567" lon="9.011043663852282"><ele>161.0</ele><time>2026-04-19T12:03:52.998Z</time></trkpt><trkpt lat="44.92328475876605" lon="9.011047926180453"><ele>161.0</ele><time>2026-04-19T12:03:53.998Z</time></trkpt><trkpt lat="44.92316811420441" lon="9.011045825103412"><ele>161.75</ele><time>2026-04-19T12:03:54.998Z</time></trkpt><trkpt lat="44.92305366874566" lon="9.011042010085651"><ele>162.5</ele><time>2026-04-19T12:03:55.998Z</time></trkpt><trkpt lat="44.92294151160537" lon="9.01104088486492"><ele>163.25</ele><time>2026-04-19T12:03:56.998Z</time></trkpt><trkpt lat="44.92282663885225" lon="9.011043999299114"><ele>164.0</ele><time>2026-04-19T12:03:57.998Z</time></trkpt><trkpt lat="44.922711539232935" lon="9.011043545777074"><ele>164.0</ele><time>2026-04-19T12:03:58.998Z</time></trkpt><trkpt lat="44.92259931521114" lon="9.011036648312523"><ele>164.0</ele><time>2026-04-19T12:03:59.998Z</time></trkpt><trkpt lat="44.92248665185036" lon="9.011028317010357"><ele>164.0</ele><time>2026-04-19T12:04:00.998Z</time></trkpt><trkpt lat="44.92236708615602" lon="9.011024403988714"><ele>164.0</ele><time>2026-04-19T12:04:01.998Z</time></trkpt><trkpt lat="44.92225621019759" lon="9.011012381209625"><ele>164.0</ele><time>2026-04-19T12:04:02.998Z</time></trkpt><trkpt lat="44.922143159110654" lon="9.01099472098663"><ele>164.0</ele><time>2026-04-19T12:04:03.998Z</time></trkpt><trkpt lat="44.92202773650083" lon="9.01096663598567"><ele>164.0</ele><time>2026-04-19T12:04:04.998Z</time></trkpt><trkpt lat="44.92191539134463" lon="9.010934173640642"><ele>164.0</ele><time>2026-04-19T12:04:05.998Z</time></trkpt><trkpt lat="44.92180224740918" lon="9.010898399713994"><ele>164.75</ele><time>2026-04-19T12:04:06.998Z</time></trkpt><trkpt lat="44.92169143476038" lon="9.010860439765262"><ele>165.5</ele><time>2026-04-19T12:04:07.998Z</time></trkpt><trkpt lat="44.92157482836379" lon="9.010834230732124"><ele>166.25</ele><time>2026-04-19T12:04:08.998Z</time></trkpt><trkpt lat="44.92146478536605" lon="9.010802195408957"><ele>167.0</ele><time>2026-04-19T12:04:09.998Z</time></trkpt><trkpt lat="44.92135208367415" lon="9.010771723536461"><ele>167.5</ele><time>2026-04-19T12:04:10.998Z</time></trkpt><trkpt lat="44.92123580187706" lon="9.010740248613308"><ele>168.0</ele><time>2026-04-19T12:04:11.998Z</time></trkpt><trkpt lat="44.92111593337266" lon="9.010712790436598"><ele>168.5</ele><time>2026-04-19T12:04:12.998Z</time></trkpt><trkpt lat="44.92100117129854" lon="9.010690433382269"><ele>169.0</ele><time>2026-04-19T12:04:13.998Z</time></trkpt><trkpt lat="44.92088204711388" lon="9.010665640652471"><ele>170.0</ele><time>2026-04-19T12:04:14.998Z</time></trkpt><trkpt lat="44.92076427321824" lon="9.010642014515428"><ele>171.0</ele><time>2026-04-19T12:04:15.998Z</time></trkpt><trkpt lat="44.920651677294416" lon="9.010617172366173"><ele>172.0</ele><time>2026-04-19T12:04:16.998Z</time></trkpt><trkpt lat="44.920538605659004" lon="9.010585077355142"><ele>173.0</ele><time>2026-04-19T12:04:17.998Z</time></trkpt><trkpt lat="44.92042511031168" lon="9.010568571803232"><ele>173.0</ele><time>2026-04-19T12:04:18.998Z</time></trkpt><trkpt lat="44.920310216314654" lon="9.010541998459932"><ele>173.0</ele><time>2026-04-19T12:04:19.998Z</time></trkpt><trkpt lat="44.92019254694127" lon="9.01052161828545"><ele>173.0</ele><time>2026-04-19T12:04:20.998Z</time></trkpt><trkpt lat="44.92007431960878" lon="9.010503950199793"><ele>173.0</ele><time>2026-04-19T12:04:21.998Z</time></trkpt><trkpt lat="44.91995366684259" lon="9.01047848001264"><ele>174.0</ele><time>2026-04-19T12:04:22.998Z</time></trkpt><trkpt lat="44.919835326071514" lon="9.010459130267003"><ele>175.0</ele><time>2026-04-19T12:04:23.998Z</time></trkpt><trkpt lat="44.91971161600133" lon="9.010445405162042"><ele>176.0</ele><time>2026-04-19T12:04:24.998Z</time></trkpt><trkpt lat="44.919598648862404" lon="9.010402814528678"><ele>177.0</ele><time>2026-04-19T12:04:25.998Z</time></trkpt><trkpt lat="44.91948251502047" lon="9.010382029771584"><ele>177.0</ele><time>2026-04-19T12:04:26.998Z</time></trkpt><trkpt lat="44.91936714091935" lon="9.010356728739069"><ele>177.0</ele><time>2026-04-19T12:04:27.998Z</time></trkpt><trkpt lat="44.91924685879161" lon="9.010341344976418"><ele>177.0</ele><time>2026-04-19T12:04:28.998Z</time></trkpt><trkpt lat="44.919128950852404" lon="9.010307353468233"><ele>177.0</ele><time>2026-04-19T12:04:29.998Z</time></trkpt><trkpt lat="44.91901145252054" lon="9.010266306354447"><ele>177.5</ele><time>2026-04-19T12:04:30.998Z</time></trkpt><trkpt lat="44.9188967401503" lon="9.01022707836393"><ele>178.0</ele><time>2026-04-19T12:04:31.998Z</time></trkpt><trkpt lat="44.91877493520581" lon="9.010189822371192"><ele>178.5</ele><time>2026-04-19T12:04:32.998Z</time></trkpt><trkpt lat="44.91866201335738" lon="9.01013229806679"><ele>179.0</ele><time>2026-04-19T12:04:33.997Z</time></trkpt><trkpt lat="44.91854437137169" lon="9.010112825098185"><ele>179.0</ele><time>2026-04-19T12:04:34.997Z</time></trkpt><trkpt lat="44.91843268625564" lon="9.010065302147325"><ele>179.0</ele><time>2026-04-19T12:04:35.997Z</time></trkpt><trkpt lat="44.91832342922425" lon="9.010018970393796"><ele>179.0</ele><time>2026-04-19T12:04:36.997Z</time></trkpt><trkpt lat="44.91821866421067" lon="9.00995967804088"><ele>179.0</ele><time>2026-04-19T12:04:37.997Z</time></trkpt><trkpt lat="44.91811192714866" lon="9.009908040499417"><ele>179.5</ele><time>2026-04-19T12:04:38.997Z</time></trkpt><trkpt lat="44.91800075187482" lon="9.009858234997084"><ele>180.0</ele><time>2026-04-19T12:04:39.997Z</time></trkpt><trkpt lat="44.9178866704146" lon="9.009810068556554"><ele>180.5</ele><time>2026-04-19T12:04:40.997Z</time></trkpt><trkpt lat="44.91779049324048" lon="9.009758514168865"><ele>181.0</ele><time>2026-04-19T12:04:41.997Z</time></trkpt><trkpt lat="44.91768389946832" lon="9.009696703141545"><ele>181.0</ele><time>2026-04-19T12:04:42.997Z</time></trkpt><trkpt lat="44.9175820470772" lon="9.009634658930935"><ele>181.0</ele><time>2026-04-19T12:04:43.997Z</time></trkpt><trkpt lat="44.917468651097394" lon="9.00957665777259"><ele>181.0</ele><time>2026-04-19T12:04:44.997Z</time></trkpt><trkpt lat="44.917362825313255" lon="9.009486382082962"><ele>181.0</ele><time>2026-04-19T12:04:45.997Z</time></trkpt><trkpt lat="44.91726543714238" lon="9.009406168870331"><ele>182.75</ele><time>2026-04-19T12:04:46.997Z</time></trkpt><trkpt lat="44.91716749128662" lon="9.009324625731749"><ele>184.5</ele><time>2026-04-19T12:04:47.997Z</time></trkpt><trkpt lat="44.91706337833497" lon="9.009258532811693"><ele>186.25</ele><time>2026-04-19T12:04:48.997Z</time></trkpt><trkpt lat="44.91696551523846" lon="9.009175695610333"><ele>188.0</ele><time>2026-04-19T12:04:49.997Z</time></trkpt><trkpt lat="44.91688137897324" lon="9.009077203607063"><ele>189.0</ele><time>2026-04-19T12:04:50.997Z</time></trkpt><trkpt lat="44.91677705023119" lon="9.009024703970862"><ele>190.0</ele><time>2026-04-19T12:04:51.999Z</time></trkpt><trkpt lat="44.91667121246682" lon="9.008981426606576"><ele>191.0</ele><time>2026-04-19T12:04:52.999Z</time></trkpt><trkpt lat="44.9165580075162" lon="9.00896460647216"><ele>192.0</ele><time>2026-04-19T12:04:53.999Z</time></trkpt><trkpt lat="44.91643191677783" lon="9.008977255783966"><ele>193.25</ele><time>2026-04-19T12:04:54.999Z</time></trkpt><trkpt lat="44.916312932997144" lon="9.008996245854652"><ele>194.5</ele><time>2026-04-19T12:04:55.999Z</time></trkpt><trkpt lat="44.91619516612349" lon="9.009010558392408"><ele>195.75</ele><time>2026-04-19T12:04:56.999Z</time></trkpt><trkpt lat="44.91607426947221" lon="9.00901577751794"><ele>197.0</ele><time>2026-04-19T12:04:57.999Z</time></trkpt><trkpt lat="44.91595725019511" lon="9.009026362188314"><ele>198.0</ele><time>2026-04-19T12:04:59Z</time></trkpt><trkpt lat="44.91584210548541" lon="9.009035733205739"><ele>199.0</ele><time>2026-04-19T12:04:59.999Z</time></trkpt><trkpt lat="44.91572265801156" lon="9.00904514821083"><ele>200.0</ele><time>2026-04-19T12:05:01Z</time></trkpt><trkpt lat="44.91561153064555" lon="9.009057280870651"><ele>201.0</ele><time>2026-04-19T12:05:02Z</time></trkpt><trkpt lat="44.915498724198514" lon="9.009036168614676"><ele>201.0</ele><time>2026-04-19T12:05:03Z</time></trkpt><trkpt lat="44.91539085402903" lon="9.009018416449681"><ele>201.0</ele><time>2026-04-19T12:05:04Z</time></trkpt><trkpt lat="44.9153176322007" lon="9.009007231697439"><ele>201.0</ele><time>2026-04-19T12:05:05Z</time></trkpt><trkpt lat="44.915232776261" lon="9.008965874473363"><ele>201.0</ele><time>2026-04-19T12:05:06Z</time></trkpt><trkpt lat="44.915167503103945" lon="9.008946500516856"><ele>201.0</ele><time>2026-04-19T12:05:07Z</time></trkpt><trkpt lat="44.91504120397505" lon="9.00891324650719"><ele>201.4</ele><time>2026-04-19T12:05:09Z</time></trkpt><trkpt lat="44.91496304121547" lon="9.008846412821406"><ele>201.8</ele><time>2026-04-19T12:05:11Z</time></trkpt><trkpt lat="44.914964728291636" lon="9.008688648997778"><ele>202.20000000000002</ele><time>2026-04-19T12:05:11.999Z</time></trkpt><trkpt lat="44.91492121172475" lon="9.008615113209185"><ele>202.60000000000002</ele><time>2026-04-19T12:05:12.999Z</time></trkpt><trkpt lat="44.9148855895019" lon="9.008501290267311"><ele>203.0</ele><time>2026-04-19T12:05:13.999Z</time></trkpt><trkpt lat="44.91482762242532" lon="9.00839013256828"><ele>202.60000000000002</ele><time>2026-04-19T12:05:14.999Z</time></trkpt><trkpt lat="44.914771246016656" lon="9.00829326596068"><ele>202.20000000000002</ele><time>2026-04-19T12:05:15.999Z</time></trkpt><trkpt lat="44.914700433535984" lon="9.008205409033614"><ele>201.8</ele><time>2026-04-19T12:05:16.999Z</time></trkpt><trkpt lat="44.914649054844766" lon="9.008087956871517"><ele>201.4</ele><time>2026-04-19T12:05:17.999Z</time></trkpt><trkpt lat="44.91459276469612" lon="9.007993376590095"><ele>201.0</ele><time>2026-04-19T12:05:18.999Z</time></trkpt><trkpt lat="44.91452678632068" lon="9.007906141360978"><ele>201.0</ele><time>2026-04-19T12:05:19.999Z</time></trkpt><trkpt lat="44.91446682716988" lon="9.007779869364594"><ele>201.0</ele><time>2026-04-19T12:05:20.999Z</time></trkpt><trkpt lat="44.91440556721631" lon="9.007674276526261"><ele>201.0</ele><time>2026-04-19T12:05:21.999Z</time></trkpt><trkpt lat="44.91435035724123" lon="9.007574159804296"><ele>201.0</ele><time>2026-04-19T12:05:22.999Z</time></trkpt><trkpt lat="44.914309010412474" lon="9.007462299960334"><ele>201.0</ele><time>2026-04-19T12:05:23.999Z</time></trkpt><trkpt lat="44.914269241472056" lon="9.007307127321962"><ele>201.20000000000002</ele><time>2026-04-19T12:05:24.999Z</time></trkpt><trkpt lat="44.91423952214581" lon="9.00714714949274"><ele>201.4</ele><time>2026-04-19T12:05:25.999Z</time></trkpt><trkpt lat="44.91421142069615" lon="9.006990414141619"><ele>201.6</ele><time>2026-04-19T12:05:26.999Z</time></trkpt><trkpt lat="44.91419000222813" lon="9.006864049732142"><ele>201.8</ele><time>2026-04-19T12:05:27.999Z</time></trkpt><trkpt lat="44.91417263091889" lon="9.006761562528515"><ele>202.0</ele><time>2026-04-19T12:05:28.999Z</time></trkpt><trkpt lat="44.91415332305144" lon="9.006647649909004"><ele>201.66666666666666</ele><time>2026-04-19T12:05:29.999Z</time></trkpt><trkpt lat="44.914134781624924" lon="9.00653825921121"><ele>201.33333333333331</ele><time>2026-04-19T12:05:30.999Z</time></trkpt><trkpt lat="44.9141113643545" lon="9.006402651652202"><ele>201.0</ele><time>2026-04-19T12:05:31.999Z</time></trkpt><trkpt lat="44.91409100938818" lon="9.006286018413427"><ele>200.66666666666669</ele><time>2026-04-19T12:05:32.999Z</time></trkpt><trkpt lat="44.91407082531254" lon="9.00617036413956"><ele>200.33333333333334</ele><time>2026-04-19T12:05:33.999Z</time></trkpt><trkpt lat="44.91404900587142" lon="9.006045339198439"><ele>200.0</ele><time>2026-04-19T12:05:34.999Z</time></trkpt><trkpt lat="44.914028284956494" lon="9.00592660881622"><ele>199.83333333333334</ele><time>2026-04-19T12:05:35.999Z</time></trkpt><trkpt lat="44.913991313744646" lon="9.005812361762045"><ele>199.66666666666669</ele><time>2026-04-19T12:05:36.999Z</time></trkpt><trkpt lat="44.913989600068234" lon="9.005702646142693"><ele>199.5</ele><time>2026-04-19T12:05:37.999Z</time></trkpt><trkpt lat="44.9139568536591" lon="9.005606289573475"><ele>199.33333333333331</ele><time>2026-04-19T12:05:38.999Z</time></trkpt><trkpt lat="44.91394430729871" lon="9.005511689265335"><ele>199.16666666666666</ele><time>2026-04-19T12:05:39.999Z</time></trkpt><trkpt lat="44.91392427232015" lon="9.005360697595219"><ele>199.0</ele><time>2026-04-19T12:05:41.999Z</time></trkpt><trkpt lat="44.913883800423804" lon="9.005253477454382"><ele>198.99999999999997</ele><time>2026-04-19T12:05:43.999Z</time></trkpt><trkpt lat="44.91379360947284" lon="9.005209936569456"><ele>199.0</ele><time>2026-04-19T12:05:45.999Z</time></trkpt><trkpt lat="44.91372554949767" lon="9.005213349413777"><ele>199.0</ele><time>2026-04-19T12:05:46.999Z</time></trkpt><trkpt lat="44.91365162849741" lon="9.005214661896447"><ele>199.0</ele><time>2026-04-19T12:05:47.999Z</time></trkpt><trkpt lat="44.913572564875935" lon="9.00520706706829"><ele>198.99999999999997</ele><time>2026-04-19T12:05:48.999Z</time></trkpt><trkpt lat="44.913502202124846" lon="9.00518343511554"><ele>199.0</ele><time>2026-04-19T12:05:49.999Z</time></trkpt><trkpt lat="44.91342889041902" lon="9.005164888452901"><ele>197.6</ele><time>2026-04-19T12:05:50.999Z</time></trkpt><trkpt lat="44.91333900105776" lon="9.005118683346753"><ele>196.2</ele><time>2026-04-19T12:05:51.999Z</time></trkpt><trkpt lat="44.91324241442683" lon="9.00504581606622"><ele>194.79999999999998</ele><time>2026-04-19T12:05:52.999Z</time></trkpt><trkpt lat="44.91316370012008" lon="9.004955191641297"><ele>193.39999999999998</ele><time>2026-04-19T12:05:53.999Z</time></trkpt><trkpt lat="44.91307420724435" lon="9.00485505617293"><ele>192.0</ele><time>2026-04-19T12:05:54.999Z</time></trkpt><trkpt lat="44.9129870605362" lon="9.004748529536581"><ele>191.75</ele><time>2026-04-19T12:05:55.999Z</time></trkpt><trkpt lat="44.912892160878094" lon="9.004626214617884"><ele>191.5</ele><time>2026-04-19T12:05:56.999Z</time></trkpt><trkpt lat="44.912800103558304" lon="9.004524170226116"><ele>191.25</ele><time>2026-04-19T12:05:57.999Z</time></trkpt><trkpt lat="44.91271510970455" lon="9.004438562202981"><ele>191.0</ele><time>2026-04-19T12:05:58.999Z</time></trkpt><trkpt lat="44.91262418627172" lon="9.004337479357437"><ele>189.0</ele><time>2026-04-19T12:05:59.999Z</time></trkpt><trkpt lat="44.91253099336476" lon="9.004228288780618"><ele>187.0</ele><time>2026-04-19T12:06:00.998Z</time></trkpt><trkpt lat="44.91243766987709" lon="9.004134099195364"><ele>185.0</ele><time>2026-04-19T12:06:01.998Z</time></trkpt><trkpt lat="44.91234757785992" lon="9.004055282856937"><ele>183.0</ele><time>2026-04-19T12:06:02.998Z</time></trkpt><trkpt lat="44.9122570931266" lon="9.003975959456515"><ele>181.0</ele><time>2026-04-19T12:06:03.998Z</time></trkpt><trkpt lat="44.91216265760832" lon="9.003890020037348"><ele>180.60000000000002</ele><time>2026-04-19T12:06:04.998Z</time></trkpt><trkpt lat="44.91207144500723" lon="9.003812214724286"><ele>180.2</ele><time>2026-04-19T12:06:05.998Z</time></trkpt><trkpt lat="44.91196935160591" lon="9.003736558904164"><ele>179.8</ele><time>2026-04-19T12:06:06.998Z</time></trkpt><trkpt lat="44.91187878679741" lon="9.003659510173984"><ele>179.39999999999998</ele><time>2026-04-19T12:06:07.998Z</time></trkpt><trkpt lat="44.91178954530804" lon="9.003565657320491"><ele>179.0</ele><time>2026-04-19T12:06:08.998Z</time></trkpt><trkpt lat="44.911722532417336" lon="9.003471581439303"><ele>179.33333333333331</ele><time>2026-04-19T12:06:09.998Z</time></trkpt><trkpt lat="44.91167469157198" lon="9.003356681261465"><ele>179.66666666666666</ele><time>2026-04-19T12:06:10.998Z</time></trkpt><trkpt lat="44.91163441298148" lon="9.003272850221972"><ele>180.0</ele><time>2026-04-19T12:06:11.998Z</time></trkpt><trkpt lat="44.91161479654389" lon="9.0031850637738"><ele>180.33333333333334</ele><time>2026-04-19T12:06:12.998Z</time></trkpt><trkpt lat="44.911600225332435" lon="9.003050902063126"><ele>180.66666666666669</ele><time>2026-04-19T12:06:13.998Z</time></trkpt><trkpt lat="44.91161864440327" lon="9.002925177261254"><ele>181.0</ele><time>2026-04-19T12:06:14.998Z</time></trkpt><trkpt lat="44.91163560007028" lon="9.002776187691458"><ele>181.0</ele><time>2026-04-19T12:06:15.998Z</time></trkpt><trkpt lat="44.91164791232741" lon="9.00265195012648"><ele>181.0</ele><time>2026-04-19T12:06:16.998Z</time></trkpt><trkpt lat="44.911656382138645" lon="9.0025260873748"><ele>181.0</ele><time>2026-04-19T12:06:17.998Z</time></trkpt><trkpt lat="44.91166311112854" lon="9.002394738263357"><ele>181.0</ele><time>2026-04-19T12:06:18.998Z</time></trkpt><trkpt lat="44.91165857665189" lon="9.002207738612178"><ele>181.0</ele><time>2026-04-19T12:06:19.998Z</time></trkpt><trkpt lat="44.91170274831558" lon="9.002082734569917"><ele>180.0</ele><time>2026-04-19T12:06:20.998Z</time></trkpt><trkpt lat="44.911741559715956" lon="9.001942772586368"><ele>179.0</ele><time>2026-04-19T12:06:21.998Z</time></trkpt><trkpt lat="44.911774552152785" lon="9.001787323690925"><ele>178.0</ele><time>2026-04-19T12:06:22.998Z</time></trkpt><trkpt lat="44.91180979160461" lon="9.001649332341719"><ele>177.0</ele><time>2026-04-19T12:06:23.998Z</time></trkpt><trkpt lat="44.911854687920965" lon="9.00152413352915"><ele>176.0</ele><time>2026-04-19T12:06:24.998Z</time></trkpt><trkpt lat="44.911920686633145" lon="9.001432255038678"><ele>176.0</ele><time>2026-04-19T12:06:25.998Z</time></trkpt><trkpt lat="44.9119903518732" lon="9.001338677187167"><ele>176.0</ele><time>2026-04-19T12:06:26.998Z</time></trkpt><trkpt lat="44.91204292873985" lon="9.001243505398286"><ele>176.0</ele><time>2026-04-19T12:06:27.998Z</time></trkpt><trkpt lat="44.912086427556524" lon="9.001131218136452"><ele>176.0</ele><time>2026-04-19T12:06:28.998Z</time></trkpt><trkpt lat="44.912141507382515" lon="9.001017933320608"><ele>176.0</ele><time>2026-04-19T12:06:29.998Z</time></trkpt><trkpt lat="44.912202739492585" lon="9.000910684949439"><ele>177.20000000000002</ele><time>2026-04-19T12:06:30.998Z</time></trkpt><trkpt lat="44.91226373256466" lon="9.00080906014481"><ele>178.4</ele><time>2026-04-19T12:06:31.998Z</time></trkpt><trkpt lat="44.91233371260438" lon="9.000683226842227"><ele>179.6</ele><time>2026-04-19T12:06:32.998Z</time></trkpt><trkpt lat="44.912392986985324" lon="9.000562954257964"><ele>180.8</ele><time>2026-04-19T12:06:33.998Z</time></trkpt><trkpt lat="44.91243610267165" lon="9.000424666753837"><ele>182.0</ele><time>2026-04-19T12:06:34.998Z</time></trkpt><trkpt lat="44.91248230153401" lon="9.000285666662538"><ele>182.0</ele><time>2026-04-19T12:06:35.998Z</time></trkpt><trkpt lat="44.91252699123391" lon="9.000147636792011"><ele>182.0</ele><time>2026-04-19T12:06:36.998Z</time></trkpt><trkpt lat="44.912587213009225" lon="9.000040890228545"><ele>182.0</ele><time>2026-04-19T12:06:37.998Z</time></trkpt><trkpt lat="44.91266818323722" lon="8.99994855874641"><ele>182.0</ele><time>2026-04-19T12:06:38.998Z</time></trkpt><trkpt lat="44.91276597456702" lon="8.999894008150498"><ele>182.0</ele><time>2026-04-19T12:06:39.998Z</time></trkpt><trkpt lat="44.91285508874747" lon="8.999809672766828"><ele>180.5</ele><time>2026-04-19T12:06:40.998Z</time></trkpt><trkpt lat="44.91292365112377" lon="8.999715383063007"><ele>179.0</ele><time>2026-04-19T12:06:41.998Z</time></trkpt><trkpt lat="44.91299677867515" lon="8.99963019562978"><ele>177.5</ele><time>2026-04-19T12:06:42.998Z</time></trkpt><trkpt lat="44.91305165422603" lon="8.99957395471779"><ele>176.0</ele><time>2026-04-19T12:06:43.997Z</time></trkpt><trkpt lat="44.91310906747304" lon="8.99951791360189"><ele>174.5</ele><time>2026-04-19T12:06:44.997Z</time></trkpt><trkpt lat="44.913165243540426" lon="8.999460587358184"><ele>173.0</ele><time>2026-04-19T12:06:45.997Z</time></trkpt><trkpt lat="44.91320966083566" lon="8.999389376848617"><ele>173.0</ele><time>2026-04-19T12:06:46.997Z</time></trkpt><trkpt lat="44.91325127239432" lon="8.999296840063487"><ele>173.0</ele><time>2026-04-19T12:06:47.997Z</time></trkpt><trkpt lat="44.913299458485135" lon="8.99921071096342"><ele>173.0</ele><time>2026-04-19T12:06:48.997Z</time></trkpt><trkpt lat="44.91335613555826" lon="8.999128837299148"><ele>173.0</ele><time>2026-04-19T12:06:49.997Z</time></trkpt><trkpt lat="44.913411288945674" lon="8.999062937161305"><ele>173.0</ele><time>2026-04-19T12:06:50.997Z</time></trkpt><trkpt lat="44.91350163984863" lon="8.99898817901148"><ele>173.0</ele><time>2026-04-19T12:06:52.997Z</time></trkpt><trkpt lat="44.91355875383038" lon="8.998942811127494"><ele>172.8</ele><time>2026-04-19T12:06:55.997Z</time></trkpt><trkpt lat="44.913572996684856" lon="8.998853662121572"><ele>172.60000000000002</ele><time>2026-04-19T12:07:17Z</time></trkpt><trkpt lat="44.91365331631275" lon="8.99871904331184"><ele>172.39999999999998</ele><time>2026-04-19T12:07:19Z</time></trkpt><trkpt lat="44.91370635366358" lon="8.998652761359793"><ele>172.2</ele><time>2026-04-19T12:07:20Z</time></trkpt><trkpt lat="44.91367569106115" lon="8.998456387528948"><ele>172.0</ele><time>2026-04-19T12:07:21Z</time></trkpt><trkpt lat="44.91376455830103" lon="8.998367998832078"><ele>172.0</ele><time>2026-04-19T12:07:23Z</time></trkpt><trkpt lat="44.913823263811175" lon="8.998333954865485"><ele>172.0</ele><time>2026-04-19T12:07:25Z</time></trkpt><trkpt lat="44.91372072696494" lon="8.9983829065838"><ele>172.0</ele><time>2026-04-19T12:07:30.999Z</time></trkpt><trkpt lat="44.913653099852176" lon="8.998450167146741"><ele>172.0</ele><time>2026-04-19T12:07:31.999Z</time></trkpt><trkpt lat="44.91359418953963" lon="8.998508759355275"><ele>172.0</ele><time>2026-04-19T12:07:32.999Z</time></trkpt><trkpt lat="44.91352645988117" lon="8.998552353787298"><ele>172.0</ele><time>2026-04-19T12:07:33.999Z</time></trkpt><trkpt lat="44.91344127188599" lon="8.998585989135236"><ele>172.83333333333334</ele><time>2026-04-19T12:07:34.999Z</time></trkpt><trkpt lat="44.91336259715522" lon="8.998574710706233"><ele>173.66666666666669</ele><time>2026-04-19T12:07:35.999Z</time></trkpt><trkpt lat="44.913271025319006" lon="8.99858626864849"><ele>174.5</ele><time>2026-04-19T12:07:36.999Z</time></trkpt><trkpt lat="44.913186443490694" lon="8.998596560245868"><ele>175.33333333333334</ele><time>2026-04-19T12:07:37.999Z</time></trkpt><trkpt lat="44.91309363364966" lon="8.998615805781181"><ele>176.16666666666666</ele><time>2026-04-19T12:07:38.999Z</time></trkpt><trkpt lat="44.913026968896084" lon="8.998677147767662"><ele>177.0</ele><time>2026-04-19T12:07:39.999Z</time></trkpt><trkpt lat="44.912937357983395" lon="8.998711743354697"><ele>177.0</ele><time>2026-04-19T12:07:40.999Z</time></trkpt><trkpt lat="44.91286432640896" lon="8.998778709880849"><ele>177.0</ele><time>2026-04-19T12:07:41.999Z</time></trkpt><trkpt lat="44.9127847477717" lon="8.99888429395769"><ele>177.0</ele><time>2026-04-19T12:07:42.999Z</time></trkpt><trkpt lat="44.91272439189078" lon="8.998984629789009"><ele>177.0</ele><time>2026-04-19T12:07:43.999Z</time></trkpt><trkpt lat="44.91264537377355" lon="8.999087000982284"><ele>177.0</ele><time>2026-04-19T12:07:44.999Z</time></trkpt><trkpt lat="44.91256500854775" lon="8.999182242722286"><ele>178.0</ele><time>2026-04-19T12:07:45.999Z</time></trkpt><trkpt lat="44.91247737740062" lon="8.999283385984139"><ele>179.0</ele><time>2026-04-19T12:07:46.999Z</time></trkpt><trkpt lat="44.91239465276356" lon="8.999378865172234"><ele>180.0</ele><time>2026-04-19T12:07:47.999Z</time></trkpt><trkpt lat="44.91230156139644" lon="8.999434866301616"><ele>181.0</ele><time>2026-04-19T12:07:48.999Z</time></trkpt><trkpt lat="44.91222570203465" lon="8.99953295630798"><ele>182.0</ele><time>2026-04-19T12:07:49.999Z</time></trkpt><trkpt lat="44.912147848456044" lon="8.999618903544325"><ele>182.0</ele><time>2026-04-19T12:07:50.999Z</time></trkpt><trkpt lat="44.91206479394908" lon="8.999714257510664"><ele>182.0</ele><time>2026-04-19T12:07:51.999Z</time></trkpt><trkpt lat="44.91197513160303" lon="8.999823560702314"><ele>182.0</ele><time>2026-04-19T12:07:52.999Z</time></trkpt><trkpt lat="44.911884324325484" lon="8.99992362142235"><ele>182.0</ele><time>2026-04-19T12:07:53.999Z</time></trkpt><trkpt lat="44.911800024882645" lon="9.000024725092391"><ele>183.39999999999998</ele><time>2026-04-19T12:07:54.999Z</time></trkpt><trkpt lat="44.91171595252712" lon="9.00011702037152"><ele>184.79999999999998</ele><time>2026-04-19T12:07:55.999Z</time></trkpt><trkpt lat="44.91164993780629" lon="9.00019554368711"><ele>186.2</ele><time>2026-04-19T12:07:56.999Z</time></trkpt><trkpt lat="44.91157671734546" lon="9.00028460028502"><ele>187.6</ele><time>2026-04-19T12:07:57.999Z</time></trkpt><trkpt lat="44.9115049759762" lon="9.000365027461466"><ele>189.0</ele><time>2026-04-19T12:07:58.999Z</time></trkpt><trkpt lat="44.91142899110764" lon="9.000447763423498"><ele>189.0</ele><time>2026-04-19T12:07:59.999Z</time></trkpt><trkpt lat="44.91135775315338" lon="9.000528414923572"><ele>189.0</ele><time>2026-04-19T12:08:00.999Z</time></trkpt><trkpt lat="44.91128647471737" lon="9.0006140477893"><ele>189.0</ele><time>2026-04-19T12:08:01.999Z</time></trkpt><trkpt lat="44.91121589158185" lon="9.000695105953323"><ele>189.0</ele><time>2026-04-19T12:08:02.999Z</time></trkpt><trkpt lat="44.91114366782881" lon="9.00077208762116"><ele>189.0</ele><time>2026-04-19T12:08:03.999Z</time></trkpt><trkpt lat="44.91107548940377" lon="9.000849583296276"><ele>188.33333333333334</ele><time>2026-04-19T12:08:04.999Z</time></trkpt><trkpt lat="44.9110252697569" lon="9.000908998048816"><ele>187.66666666666666</ele><time>2026-04-19T12:08:05.999Z</time></trkpt><trkpt lat="44.91095138643443" lon="9.000996098756975"><ele>187.0</ele><time>2026-04-19T12:08:07.999Z</time></trkpt><trkpt lat="44.91089786477274" lon="9.001057931176302"><ele>186.33333333333331</ele><time>2026-04-19T12:08:09.999Z</time></trkpt><trkpt lat="44.910854252979306" lon="9.001204783029076"><ele>185.66666666666666</ele><time>2026-04-19T12:08:11.998Z</time></trkpt><trkpt lat="44.91085383727336" lon="9.001300036031948"><ele>185.0</ele><time>2026-04-19T12:08:12.998Z</time></trkpt><trkpt lat="44.91087335516677" lon="9.001385279816612"><ele>187.0</ele><time>2026-04-19T12:08:13.998Z</time></trkpt><trkpt lat="44.91083007918416" lon="9.001475331882583"><ele>189.0</ele><time>2026-04-19T12:08:16.998Z</time></trkpt><trkpt lat="44.91075942050709" lon="9.001379708310376"><ele>191.0</ele><time>2026-04-19T12:08:19.998Z</time></trkpt><trkpt lat="44.910699321267735" lon="9.001237911404788"><ele>193.0</ele><time>2026-04-19T12:08:21.998Z</time></trkpt><trkpt lat="44.91064763919097" lon="9.00115817601489"><ele>195.0</ele><time>2026-04-19T12:08:22.998Z</time></trkpt><trkpt lat="44.910600407666536" lon="9.001060685435123"><ele>195.0</ele><time>2026-04-19T12:08:23.998Z</time></trkpt><trkpt lat="44.910539054530474" lon="9.000935992750327"><ele>195.0</ele><time>2026-04-19T12:08:24.998Z</time></trkpt><trkpt lat="44.910496571394624" lon="9.000846099655599"><ele>195.0</ele><time>2026-04-19T12:08:25.998Z</time></trkpt><trkpt lat="44.91043684415738" lon="9.00071216764086"><ele>195.0</ele><time>2026-04-19T12:08:26.998Z</time></trkpt><trkpt lat="44.9103908380665" lon="9.000590000076633"><ele>195.0</ele><time>2026-04-19T12:08:27.998Z</time></trkpt><trkpt lat="44.910340341874914" lon="9.00047760333567"><ele>193.8</ele><time>2026-04-19T12:08:28.998Z</time></trkpt><trkpt lat="44.91027288139662" lon="9.000365511506336"><ele>192.6</ele><time>2026-04-19T12:08:29.998Z</time></trkpt><trkpt lat="44.91020873213961" lon="9.000253367950933"><ele>191.39999999999998</ele><time>2026-04-19T12:08:30.998Z</time></trkpt><trkpt lat="44.91015853947624" lon="9.000141397524736"><ele>190.2</ele><time>2026-04-19T12:08:31.998Z</time></trkpt><trkpt lat="44.91009496218513" lon="9.000023601208921"><ele>189.0</ele><time>2026-04-19T12:08:32.998Z</time></trkpt><trkpt lat="44.91004428230298" lon="8.999912267527698"><ele>188.39999999999998</ele><time>2026-04-19T12:08:33.998Z</time></trkpt><trkpt lat="44.90998478054233" lon="8.999802964093606"><ele>187.8</ele><time>2026-04-19T12:08:34.998Z</time></trkpt><trkpt lat="44.90991639901689" lon="8.999679746209855"><ele>187.2</ele><time>2026-04-19T12:08:35.998Z</time></trkpt><trkpt lat="44.90984597427875" lon="8.999563142766373"><ele>186.60000000000002</ele><time>2026-04-19T12:08:36.998Z</time></trkpt><trkpt lat="44.909782014976585" lon="8.999443203990047"><ele>186.0</ele><time>2026-04-19T12:08:37.998Z</time></trkpt><trkpt lat="44.90971601150338" lon="8.999317001030972"><ele>186.0</ele><time>2026-04-19T12:08:38.998Z</time></trkpt><trkpt lat="44.90964998129013" lon="8.999187455325375"><ele>186.0</ele><time>2026-04-19T12:08:39.998Z</time></trkpt><trkpt lat="44.90958781944304" lon="8.999063850802246"><ele>186.0</ele><time>2026-04-19T12:08:40.998Z</time></trkpt><trkpt lat="44.90952699144058" lon="8.998948622723713"><ele>186.0</ele><time>2026-04-19T12:08:41.998Z</time></trkpt><trkpt lat="44.9094728851284" lon="8.99883673505075"><ele>186.0</ele><time>2026-04-19T12:08:42.998Z</time></trkpt><trkpt lat="44.9094220296641" lon="8.998722581636823"><ele>185.83333333333334</ele><time>2026-04-19T12:08:43.998Z</time></trkpt><trkpt lat="44.909377663197446" lon="8.99865232423535"><ele>185.66666666666666</ele><time>2026-04-19T12:08:44.998Z</time></trkpt><trkpt lat="44.909250186035806" lon="8.998613149742942"><ele>185.5</ele><time>2026-04-19T12:08:46.998Z</time></trkpt><trkpt lat="44.90917647260682" lon="8.998657580506944"><ele>185.33333333333331</ele><time>2026-04-19T12:08:47.998Z</time></trkpt><trkpt lat="44.909101365387855" lon="8.998720236147168"><ele>185.16666666666666</ele><time>2026-04-19T12:08:49.998Z</time></trkpt><trkpt lat="44.90903016945864" lon="8.998669245428964"><ele>185.0</ele><time>2026-04-19T12:08:51.998Z</time></trkpt><trkpt lat="44.90901506764763" lon="8.99849341722985"><ele>186.6</ele><time>2026-04-19T12:08:53.998Z</time></trkpt><trkpt lat="44.909021189471474" lon="8.99835713393425"><ele>188.2</ele><time>2026-04-19T12:08:54.998Z</time></trkpt><trkpt lat="44.909027057044696" lon="8.99822993601651"><ele>189.8</ele><time>2026-04-19T12:08:55.998Z</time></trkpt><trkpt lat="44.90902770390545" lon="8.99807638096448"><ele>191.4</ele><time>2026-04-19T12:08:56.997Z</time></trkpt><trkpt lat="44.90901946687897" lon="8.997914906473966"><ele>193.0</ele><time>2026-04-19T12:08:57.997Z</time></trkpt><trkpt lat="44.90901379933932" lon="8.997741134131036"><ele>193.0</ele><time>2026-04-19T12:08:58.997Z</time></trkpt><trkpt lat="44.90900833435517" lon="8.997557169460666"><ele>193.0</ele><time>2026-04-19T12:08:59.997Z</time></trkpt><trkpt lat="44.908993863675235" lon="8.99737350913038"><ele>193.0</ele><time>2026-04-19T12:09:00.997Z</time></trkpt><trkpt lat="44.908999329515076" lon="8.997187509060309"><ele>193.0</ele><time>2026-04-19T12:09:01.997Z</time></trkpt><trkpt lat="44.90899054155251" lon="8.996988187664014"><ele>193.0</ele><time>2026-04-19T12:09:03Z</time></trkpt><trkpt lat="44.90898372005441" lon="8.996775830350828"><ele>193.0</ele><time>2026-04-19T12:09:04Z</time></trkpt><trkpt lat="44.90897847076527" lon="8.996570092169053"><ele>193.0</ele><time>2026-04-19T12:09:05Z</time></trkpt><trkpt lat="44.9089720659732" lon="8.996361321107345"><ele>193.0</ele><time>2026-04-19T12:09:06Z</time></trkpt><trkpt lat="44.9089626459035" lon="8.996157864440816"><ele>192.0</ele><time>2026-04-19T12:09:07Z</time></trkpt><trkpt lat="44.90895516116147" lon="8.995954834953654"><ele>191.0</ele><time>2026-04-19T12:09:08Z</time></trkpt><trkpt lat="44.908947219439526" lon="8.995758969884"><ele>190.0</ele><time>2026-04-19T12:09:09Z</time></trkpt><trkpt lat="44.90894424703418" lon="8.995568397555228"><ele>189.0</ele><time>2026-04-19T12:09:10Z</time></trkpt><trkpt lat="44.90893827621575" lon="8.995369291927696"><ele>187.5</ele><time>2026-04-19T12:09:11Z</time></trkpt><trkpt lat="44.90892981823722" lon="8.995172015203652"><ele>186.0</ele><time>2026-04-19T12:09:12Z</time></trkpt><trkpt lat="44.90892256021385" lon="8.994977202340191"><ele>184.5</ele><time>2026-04-19T12:09:13Z</time></trkpt><trkpt lat="44.9089159808309" lon="8.994788945952731"><ele>183.0</ele><time>2026-04-19T12:09:14Z</time></trkpt><trkpt lat="44.908909261608414" lon="8.994601986319859"><ele>181.25</ele><time>2026-04-19T12:09:15Z</time></trkpt><trkpt lat="44.90890459016021" lon="8.99441838226997"><ele>179.5</ele><time>2026-04-19T12:09:16Z</time></trkpt><trkpt lat="44.908897326534564" lon="8.994231271613948"><ele>177.75</ele><time>2026-04-19T12:09:17Z</time></trkpt><trkpt lat="44.90889247623879" lon="8.994044078958103"><ele>176.0</ele><time>2026-04-19T12:09:18Z</time></trkpt><trkpt lat="44.90888847154899" lon="8.993862721461127"><ele>175.75</ele><time>2026-04-19T12:09:19Z</time></trkpt><trkpt lat="44.90888487886723" lon="8.993682669898273"><ele>175.5</ele><time>2026-04-19T12:09:20Z</time></trkpt><trkpt lat="44.90887833886901" lon="8.993503128824887"><ele>175.25</ele><time>2026-04-19T12:09:21Z</time></trkpt><trkpt lat="44.908874851884406" lon="8.993327104901239"><ele>175.0</ele><time>2026-04-19T12:09:22Z</time></trkpt><trkpt lat="44.90886969175675" lon="8.993145531626505"><ele>175.0</ele><time>2026-04-19T12:09:23Z</time></trkpt><trkpt lat="44.90886633128005" lon="8.992971876326829"><ele>175.0</ele><time>2026-04-19T12:09:24Z</time></trkpt><trkpt lat="44.908865091654896" lon="8.992788776359944"><ele>175.0</ele><time>2026-04-19T12:09:25Z</time></trkpt><trkpt lat="44.90886522818245" lon="8.992619629171285"><ele>175.0</ele><time>2026-04-19T12:09:26Z</time></trkpt><trkpt lat="44.90885633053261" lon="8.992441803152051"><ele>176.0</ele><time>2026-04-19T12:09:27Z</time></trkpt><trkpt lat="44.90884407922909" lon="8.992273935608038"><ele>177.0</ele><time>2026-04-19T12:09:28Z</time></trkpt><trkpt lat="44.908840314622715" lon="8.992125986474516"><ele>178.0</ele><time>2026-04-19T12:09:29Z</time></trkpt><trkpt lat="44.9088375679034" lon="8.99200393599765"><ele>179.0</ele><time>2026-04-19T12:09:30Z</time></trkpt><trkpt lat="44.90884145175474" lon="8.9919148571429"><ele>180.0</ele><time>2026-04-19T12:09:31Z</time></trkpt><trkpt lat="44.90884969437486" lon="8.991804307774451"><ele>180.0</ele><time>2026-04-19T12:09:32Z</time></trkpt><trkpt lat="44.90887013503346" lon="8.991685184146618"><ele>180.0</ele><time>2026-04-19T12:09:34Z</time></trkpt><trkpt lat="44.90879073982055" lon="8.991646281860007"><ele>180.0</ele><time>2026-04-19T12:09:38Z</time></trkpt><trkpt lat="44.908717830092094" lon="8.991673339829592"><ele>180.0</ele><time>2026-04-19T12:09:39Z</time></trkpt><trkpt lat="44.908636646163906" lon="8.991715662230218"><ele>180.0</ele><time>2026-04-19T12:09:40Z</time></trkpt><trkpt lat="44.90854705671004" lon="8.99174577073514"><ele>180.0</ele><time>2026-04-19T12:09:41Z</time></trkpt><trkpt lat="44.90845868637536" lon="8.99176575692159"><ele>181.0</ele><time>2026-04-19T12:09:41.999Z</time></trkpt><trkpt lat="44.90835490387792" lon="8.991793911225134"><ele>182.0</ele><time>2026-04-19T12:09:42.999Z</time></trkpt><trkpt lat="44.908250822530405" lon="8.991827755297075"><ele>183.0</ele><time>2026-04-19T12:09:43.999Z</time></trkpt><trkpt lat="44.90814110116375" lon="8.991868277768935"><ele>184.0</ele><time>2026-04-19T12:09:44.999Z</time></trkpt><trkpt lat="44.9080287684863" lon="8.991919731191349"><ele>185.0</ele><time>2026-04-19T12:09:45.999Z</time></trkpt><trkpt lat="44.907910334075254" lon="8.991972540174805"><ele>185.0</ele><time>2026-04-19T12:09:46.999Z</time></trkpt><trkpt lat="44.907787952730466" lon="8.992033862342144"><ele>185.0</ele><time>2026-04-19T12:09:47.999Z</time></trkpt><trkpt lat="44.90766578505207" lon="8.992090446527145"><ele>185.0</ele><time>2026-04-19T12:09:48.999Z</time></trkpt><trkpt lat="44.90754350441576" lon="8.992147371983249"><ele>185.0</ele><time>2026-04-19T12:09:49.999Z</time></trkpt><trkpt lat="44.907423359443506" lon="8.992202059897425"><ele>186.5</ele><time>2026-04-19T12:09:50.999Z</time></trkpt><trkpt lat="44.90730903425183" lon="8.992255341465642"><ele>188.0</ele><time>2026-04-19T12:09:51.999Z</time></trkpt><trkpt lat="44.907195041872285" lon="8.99230754348033"><ele>189.5</ele><time>2026-04-19T12:09:52.999Z</time></trkpt><trkpt lat="44.90708493187495" lon="8.992359155729952"><ele>191.0</ele><time>2026-04-19T12:09:53.999Z</time></trkpt><trkpt lat="44.90696968595541" lon="8.992413052063496"><ele>191.0</ele><time>2026-04-19T12:09:54.999Z</time></trkpt><trkpt lat="44.90686133712912" lon="8.992467695610978"><ele>191.0</ele><time>2026-04-19T12:09:55.999Z</time></trkpt><trkpt lat="44.90676798308721" lon="8.992521212974095"><ele>191.0</ele><time>2026-04-19T12:09:56.999Z</time></trkpt><trkpt lat="44.90668480428162" lon="8.99258220944412"><ele>191.0</ele><time>2026-04-19T12:09:57.999Z</time></trkpt><trkpt lat="44.9065964748271" lon="8.992661763134166"><ele>191.0</ele><time>2026-04-19T12:09:58.999Z</time></trkpt><trkpt lat="44.90652107020358" lon="8.992726862496008"><ele>191.0</ele><time>2026-04-19T12:09:59.999Z</time></trkpt><trkpt lat="44.9064402979044" lon="8.992785229161962"><ele>191.0</ele><time>2026-04-19T12:10:00.999Z</time></trkpt><trkpt lat="44.906350433050505" lon="8.99283430729722"><ele>191.0</ele><time>2026-04-19T12:10:01.999Z</time></trkpt><trkpt lat="44.906261801876" lon="8.99286477804313"><ele>191.0</ele><time>2026-04-19T12:10:02.999Z</time></trkpt><trkpt lat="44.906158465718384" lon="8.99288039680605"><ele>191.0</ele><time>2026-04-19T12:10:03.999Z</time></trkpt><trkpt lat="44.90605009911394" lon="8.992895336270736"><ele>191.0</ele><time>2026-04-19T12:10:04.999Z</time></trkpt><trkpt lat="44.90593750154668" lon="8.99291950138032"><ele>191.0</ele><time>2026-04-19T12:10:05.999Z</time></trkpt><trkpt lat="44.905828458515224" lon="8.992945583306179"><ele>191.0</ele><time>2026-04-19T12:10:06.999Z</time></trkpt><trkpt lat="44.905713252050056" lon="8.992977450494365"><ele>191.0</ele><time>2026-04-19T12:10:07.999Z</time></trkpt><trkpt lat="44.90560435617765" lon="8.992999856126923"><ele>191.60000000000002</ele><time>2026-04-19T12:10:08.999Z</time></trkpt><trkpt lat="44.90549568223588" lon="8.993028238931133"><ele>192.2</ele><time>2026-04-19T12:10:09.999Z</time></trkpt><trkpt lat="44.90538993411702" lon="8.993049963717235"><ele>192.8</ele><time>2026-04-19T12:10:10.999Z</time></trkpt><trkpt lat="44.90527872853132" lon="8.993077674959396"><ele>193.39999999999998</ele><time>2026-04-19T12:10:11.999Z</time></trkpt><trkpt lat="44.90517590837654" lon="8.993104752820866"><ele>194.0</ele><time>2026-04-19T12:10:12.999Z</time></trkpt><trkpt lat="44.90506992786769" lon="8.993131817966193"><ele>194.6</ele><time>2026-04-19T12:10:13.999Z</time></trkpt><trkpt lat="44.904973765629585" lon="8.993154441499414"><ele>195.2</ele><time>2026-04-19T12:10:14.999Z</time></trkpt><trkpt lat="44.904864380357814" lon="8.99317310897292"><ele>195.79999999999998</ele><time>2026-04-19T12:10:15.999Z</time></trkpt><trkpt lat="44.904764678579724" lon="8.993196853320718"><ele>196.39999999999998</ele><time>2026-04-19T12:10:16.999Z</time></trkpt><trkpt lat="44.90465842362896" lon="8.993223919530594"><ele>197.0</ele><time>2026-04-19T12:10:17.999Z</time></trkpt><trkpt lat="44.904553203541006" lon="8.993242754918663"><ele>197.0</ele><time>2026-04-19T12:10:18.999Z</time></trkpt><trkpt lat="44.90445358083888" lon="8.993266206800035"><ele>197.0</ele><time>2026-04-19T12:10:19.999Z</time></trkpt><trkpt lat="44.90434713700596" lon="8.993293033710296"><ele>197.0</ele><time>2026-04-19T12:10:20.999Z</time></trkpt><trkpt lat="44.904240477057215" lon="8.993315199344591"><ele>197.0</ele><time>2026-04-19T12:10:21.999Z</time></trkpt><trkpt lat="44.90413877500823" lon="8.99334646809757"><ele>197.0</ele><time>2026-04-19T12:10:22.999Z</time></trkpt><trkpt lat="44.9040383467827" lon="8.993370835415092"><ele>197.2</ele><time>2026-04-19T12:10:23.999Z</time></trkpt><trkpt lat="44.90393623976044" lon="8.993398322030684"><ele>197.39999999999998</ele><time>2026-04-19T12:10:24.999Z</time></trkpt><trkpt lat="44.90383275533421" lon="8.993423676274546"><ele>197.60000000000002</ele><time>2026-04-19T12:10:25.999Z</time></trkpt><trkpt lat="44.9037289784931" lon="8.99345321316847"><ele>197.8</ele><time>2026-04-19T12:10:26.999Z</time></trkpt><trkpt lat="44.90363078693697" lon="8.993477658332564"><ele>198.0</ele><time>2026-04-19T12:10:27.999Z</time></trkpt><trkpt lat="44.903543196886346" lon="8.99349683738731"><ele>198.0</ele><time>2026-04-19T12:10:28.998Z</time></trkpt><trkpt lat="44.90345683644714" lon="8.99352081153213"><ele>198.0</ele><time>2026-04-19T12:10:29.998Z</time></trkpt><trkpt lat="44.903373613663256" lon="8.993541872850045"><ele>198.0</ele><time>2026-04-19T12:10:30.998Z</time></trkpt><trkpt lat="44.90327746644132" lon="8.993567099613552"><ele>198.0</ele><time>2026-04-19T12:10:31.998Z</time></trkpt><trkpt lat="44.90318949531862" lon="8.993587441355743"><ele>198.0</ele><time>2026-04-19T12:10:32.998Z</time></trkpt><trkpt lat="44.90309110431822" lon="8.993609375835751"><ele>199.0</ele><time>2026-04-19T12:10:33.998Z</time></trkpt><trkpt lat="44.90299842664385" lon="8.99363466263683"><ele>200.0</ele><time>2026-04-19T12:10:34.998Z</time></trkpt><trkpt lat="44.90291251011856" lon="8.99365651399256"><ele>201.0</ele><time>2026-04-19T12:10:35.998Z</time></trkpt><trkpt lat="44.902827904278034" lon="8.993677000990099"><ele>202.0</ele><time>2026-04-19T12:10:36.998Z</time></trkpt><trkpt lat="44.902735942332214" lon="8.993692987731134"><ele>203.0</ele><time>2026-04-19T12:10:37.998Z</time></trkpt><trkpt lat="44.90266970055558" lon="8.993692262816353"><ele>204.0</ele><time>2026-04-19T12:10:38.998Z</time></trkpt><trkpt lat="44.90260499237014" lon="8.993672254858742"><ele>204.79999999999998</ele><time>2026-04-19T12:10:39.998Z</time></trkpt><trkpt lat="44.902545886129104" lon="8.993641066453293"><ele>205.6</ele><time>2026-04-19T12:10:40.998Z</time></trkpt><trkpt lat="44.90244028729813" lon="8.993582022538677"><ele>206.4</ele><time>2026-04-19T12:10:42.998Z</time></trkpt><trkpt lat="44.902353946036264" lon="8.993504577440095"><ele>207.2</ele><time>2026-04-19T12:10:44.998Z</time></trkpt><trkpt lat="44.90225588461465" lon="8.993443163656304"><ele>208.0</ele><time>2026-04-19T12:10:46.998Z</time></trkpt><trkpt lat="44.902194488587604" lon="8.993418965656533"><ele>207.99999999999997</ele><time>2026-04-19T12:10:47.998Z</time></trkpt><trkpt lat="44.902092531018305" lon="8.993410758114614"><ele>208.0</ele><time>2026-04-19T12:10:49.998Z</time></trkpt><trkpt lat="44.902026530894894" lon="8.993354540596044"><ele>208.0</ele><time>2026-04-19T12:10:51.998Z</time></trkpt><trkpt lat="44.902082904088005" lon="8.99323761688486"><ele>208.0</ele><time>2026-04-19T12:10:54.998Z</time></trkpt><trkpt lat="44.902163394622725" lon="8.99321269950143"><ele>207.99999999999997</ele><time>2026-04-19T12:10:56.998Z</time></trkpt><trkpt lat="44.902211477600524" lon="8.993153477829315"><ele>208.0</ele><time>2026-04-19T12:10:58.998Z</time></trkpt><trkpt lat="44.902222563911494" lon="8.993030469034203"><ele>208.16666666666666</ele><time>2026-04-19T12:11:00.998Z</time></trkpt><trkpt lat="44.902188424004784" lon="8.992916570749358"><ele>208.33333333333331</ele><time>2026-04-19T12:11:02.998Z</time></trkpt><trkpt lat="44.90211549721538" lon="8.99281542546744"><ele>208.5</ele><time>2026-04-19T12:11:04.998Z</time></trkpt><trkpt lat="44.90206626793881" lon="8.99275336775201"><ele>208.66666666666669</ele><time>2026-04-19T12:11:05.998Z</time></trkpt><trkpt lat="44.901977743367176" lon="8.992649644755307"><ele>208.83333333333334</ele><time>2026-04-19T12:11:08Z</time></trkpt><trkpt lat="44.90192448136975" lon="8.99259890133073"><ele>209.0</ele><time>2026-04-19T12:11:09Z</time></trkpt><trkpt lat="44.90185342837561" lon="8.992538888059046"><ele>208.50000000000003</ele><time>2026-04-19T12:11:10Z</time></trkpt><trkpt lat="44.90179135899933" lon="8.992498630725875"><ele>208.0</ele><time>2026-04-19T12:11:11Z</time></trkpt><trkpt lat="44.901725476055134" lon="8.992448693860108"><ele>207.5</ele><time>2026-04-19T12:11:12Z</time></trkpt><trkpt lat="44.901654638371184" lon="8.99239860537523"><ele>207.0</ele><time>2026-04-19T12:11:13Z</time></trkpt><trkpt lat="44.90159124114498" lon="8.992359171671808"><ele>206.50000000000003</ele><time>2026-04-19T12:11:14Z</time></trkpt><trkpt lat="44.90146799946395" lon="8.992311583899342"><ele>206.0</ele><time>2026-04-19T12:11:16Z</time></trkpt><trkpt lat="44.9013986466023" lon="8.992298412127836"><ele>205.50000000000003</ele><time>2026-04-19T12:11:17Z</time></trkpt><trkpt lat="44.90132111352193" lon="8.992293902701803"><ele>205.0</ele><time>2026-04-19T12:11:18Z</time></trkpt><trkpt lat="44.901250507655526" lon="8.992292612210514"><ele>204.5</ele><time>2026-04-19T12:11:19Z</time></trkpt><trkpt lat="44.90115857602916" lon="8.99228608455245"><ele>204.0</ele><time>2026-04-19T12:11:20Z</time></trkpt><trkpt lat="44.901054849482534" lon="8.992281016561748"><ele>203.50000000000003</ele><time>2026-04-19T12:11:21Z</time></trkpt><trkpt lat="44.9009655960922" lon="8.992270526935169"><ele>203.0</ele><time>2026-04-19T12:11:22Z</time></trkpt><trkpt lat="44.90087039951265" lon="8.99226658751693"><ele>202.4</ele><time>2026-04-19T12:11:23Z</time></trkpt><trkpt lat="44.900772287587934" lon="8.992260451940203"><ele>201.8</ele><time>2026-04-19T12:11:24Z</time></trkpt><trkpt lat="44.90067981664188" lon="8.992250362360652"><ele>201.2</ele><time>2026-04-19T12:11:25Z</time></trkpt><trkpt lat="44.90057799738217" lon="8.992236400711418"><ele>200.6</ele><time>2026-04-19T12:11:26Z</time></trkpt><trkpt lat="44.90047744580409" lon="8.99220343103175"><ele>200.0</ele><time>2026-04-19T12:11:27Z</time></trkpt><trkpt lat="44.9003887367063" lon="8.992154520374408"><ele>200.0</ele><time>2026-04-19T12:11:28Z</time></trkpt><trkpt lat="44.90028985829864" lon="8.992108392922189"><ele>200.0</ele><time>2026-04-19T12:11:29Z</time></trkpt><trkpt lat="44.900199544744474" lon="8.992055180327634"><ele>200.0</ele><time>2026-04-19T12:11:30Z</time></trkpt><trkpt lat="44.90011370959471" lon="8.99200210120922"><ele>200.0</ele><time>2026-04-19T12:11:31Z</time></trkpt><trkpt lat="44.90004265071561" lon="8.991960162104983"><ele>200.0</ele><time>2026-04-19T12:11:32Z</time></trkpt><trkpt lat="44.899967734820876" lon="8.991915353728196"><ele>199.2</ele><time>2026-04-19T12:11:33Z</time></trkpt><trkpt lat="44.89987570299276" lon="8.991840110564075"><ele>198.4</ele><time>2026-04-19T12:11:34Z</time></trkpt><trkpt lat="44.89980008519896" lon="8.991765612981954"><ele>197.60000000000002</ele><time>2026-04-19T12:11:35Z</time></trkpt><trkpt lat="44.89973851162392" lon="8.991689635884914"><ele>196.8</ele><time>2026-04-19T12:11:36Z</time></trkpt><trkpt lat="44.89967221863092" lon="8.991596283665167"><ele>196.0</ele><time>2026-04-19T12:11:37Z</time></trkpt><trkpt lat="44.89955927463941" lon="8.991464571365793"><ele>193.8</ele><time>2026-04-19T12:11:39Z</time></trkpt><trkpt lat="44.89950071855926" lon="8.991395598427216"><ele>191.60000000000002</ele><time>2026-04-19T12:11:40Z</time></trkpt><trkpt lat="44.89941843683724" lon="8.99130443229664"><ele>189.4</ele><time>2026-04-19T12:11:41Z</time></trkpt><trkpt lat="44.899351858864186" lon="8.99122389541896"><ele>187.2</ele><time>2026-04-19T12:11:42Z</time></trkpt><trkpt lat="44.89925369897472" lon="8.99113028718431"><ele>185.0</ele><time>2026-04-19T12:11:43Z</time></trkpt><trkpt lat="44.89917523981407" lon="8.991039007626368"><ele>185.0</ele><time>2026-04-19T12:11:44Z</time></trkpt><trkpt lat="44.8990874848735" lon="8.99096048527483"><ele>185.0</ele><time>2026-04-19T12:11:45Z</time></trkpt><trkpt lat="44.899007003374685" lon="8.990895041008697"><ele>185.0</ele><time>2026-04-19T12:11:46Z</time></trkpt><trkpt lat="44.89889428330303" lon="8.990815608749022"><ele>185.0</ele><time>2026-04-19T12:11:48Z</time></trkpt><trkpt lat="44.89882544923375" lon="8.990772165181355"><ele>185.0</ele><time>2026-04-19T12:11:48.999Z</time></trkpt><trkpt lat="44.898774173322316" lon="8.990702041568461"><ele>184.0</ele><time>2026-04-19T12:11:49.999Z</time></trkpt><trkpt lat="44.898711693877424" lon="8.9905932971694"><ele>183.0</ele><time>2026-04-19T12:11:50.999Z</time></trkpt><trkpt lat="44.89863719910537" lon="8.990480196525324"><ele>182.0</ele><time>2026-04-19T12:11:51.999Z</time></trkpt><trkpt lat="44.89857229319491" lon="8.99038997623469"><ele>181.0</ele><time>2026-04-19T12:11:52.999Z</time></trkpt><trkpt lat="44.89848458463211" lon="8.990287672414363"><ele>180.0</ele><time>2026-04-19T12:11:53.999Z</time></trkpt><trkpt lat="44.898422936311086" lon="8.99017880903151"><ele>179.33333333333334</ele><time>2026-04-19T12:11:54.999Z</time></trkpt><trkpt lat="44.89835574878217" lon="8.990063354566956"><ele>178.66666666666666</ele><time>2026-04-19T12:11:55.999Z</time></trkpt><trkpt lat="44.89829372521647" lon="8.989960539278817"><ele>178.0</ele><time>2026-04-19T12:11:56.999Z</time></trkpt><trkpt lat="44.898245555272595" lon="8.989869922940544"><ele>177.33333333333331</ele><time>2026-04-19T12:11:57.999Z</time></trkpt><trkpt lat="44.89820889496902" lon="8.989795078018192"><ele>176.66666666666666</ele><time>2026-04-19T12:11:58.999Z</time></trkpt><trkpt lat="44.898153424498076" lon="8.989732532549148"><ele>176.0</ele><time>2026-04-19T12:11:59.999Z</time></trkpt><trkpt lat="44.8980629996777" lon="8.98961541237113"><ele>176.0</ele><time>2026-04-19T12:12:01.999Z</time></trkpt><trkpt lat="44.89797196221545" lon="8.989498257137349"><ele>176.0</ele><time>2026-04-19T12:12:03.999Z</time></trkpt><trkpt lat="44.89792156941472" lon="8.989438761164314"><ele>176.0</ele><time>2026-04-19T12:12:04.999Z</time></trkpt><trkpt lat="44.8978296895062" lon="8.98933058521185"><ele>176.0</ele><time>2026-04-19T12:12:06.999Z</time></trkpt><trkpt lat="44.89778352613279" lon="8.989269100417728"><ele>176.0</ele><time>2026-04-19T12:12:07.999Z</time></trkpt><trkpt lat="44.89768947705567" lon="8.989153397035299"><ele>176.0</ele><time>2026-04-19T12:12:09.999Z</time></trkpt><trkpt lat="44.897639205632274" lon="8.98909569968041"><ele>176.0</ele><time>2026-04-19T12:12:10.999Z</time></trkpt><trkpt lat="44.897540098400384" lon="8.98898122494564"><ele>176.0</ele><time>2026-04-19T12:12:12.999Z</time></trkpt><trkpt lat="44.8974895991858" lon="8.988924580691075"><ele>176.0</ele><time>2026-04-19T12:12:13.999Z</time></trkpt><trkpt lat="44.89744017027846" lon="8.98886719561569"><ele>176.0</ele><time>2026-04-19T12:12:14.999Z</time></trkpt><trkpt lat="44.897388818840454" lon="8.988803783702245"><ele>176.0</ele><time>2026-04-19T12:12:15.999Z</time></trkpt><trkpt lat="44.89734020511319" lon="8.98874620755456"><ele>176.16666666666666</ele><time>2026-04-19T12:12:16.999Z</time></trkpt><trkpt lat="44.897236329925335" lon="8.988638198866473"><ele>176.33333333333331</ele><time>2026-04-19T12:12:18.999Z</time></trkpt><trkpt lat="44.897174490181094" lon="8.988577799486432"><ele>176.5</ele><time>2026-04-19T12:12:19.999Z</time></trkpt><trkpt lat="44.897118013840405" lon="8.988525861754674"><ele>176.66666666666666</ele><time>2026-04-19T12:12:20.999Z</time></trkpt><trkpt lat="44.89704635087825" lon="8.988441888214272"><ele>176.83333333333334</ele><time>2026-04-19T12:12:21.999Z</time></trkpt><trkpt lat="44.89699801550049" lon="8.98837273139108"><ele>177.0</ele><time>2026-04-19T12:12:22.999Z</time></trkpt><trkpt lat="44.89692762679377" lon="8.988286367904715"><ele>177.0</ele><time>2026-04-19T12:12:23.999Z</time></trkpt><trkpt lat="44.896871906250624" lon="8.988215738830583"><ele>177.0</ele><time>2026-04-19T12:12:24.999Z</time></trkpt><trkpt lat="44.89680039635901" lon="8.98813773129618"><ele>177.0</ele><time>2026-04-19T12:12:25.999Z</time></trkpt><trkpt lat="44.896732763497056" lon="8.988064500582121"><ele>177.0</ele><time>2026-04-19T12:12:26.999Z</time></trkpt><trkpt lat="44.89666357411603" lon="8.988004382513587"><ele>177.0</ele><time>2026-04-19T12:12:27.999Z</time></trkpt><trkpt lat="44.896594794502256" lon="8.98794980629385"><ele>177.0</ele><time>2026-04-19T12:12:28.999Z</time></trkpt><trkpt lat="44.896523372566264" lon="8.987902731356112"><ele>177.0</ele><time>2026-04-19T12:12:29.999Z</time></trkpt><trkpt lat="44.8964479926271" lon="8.98786270847788"><ele>177.0</ele><time>2026-04-19T12:12:30.999Z</time></trkpt><trkpt lat="44.89638049866146" lon="8.987816564281626"><ele>177.0</ele><time>2026-04-19T12:12:31.999Z</time></trkpt><trkpt lat="44.8962964137452" lon="8.987769742242767"><ele>177.0</ele><time>2026-04-19T12:12:32.999Z</time></trkpt><trkpt lat="44.896216940112" lon="8.987716563376331"><ele>177.0</ele><time>2026-04-19T12:12:33.999Z</time></trkpt><trkpt lat="44.8961472621517" lon="8.98765338695008"><ele>177.0</ele><time>2026-04-19T12:12:34.998Z</time></trkpt><trkpt lat="44.89608113962226" lon="8.987589516080906"><ele>177.0</ele><time>2026-04-19T12:12:35.998Z</time></trkpt><trkpt lat="44.89600629338798" lon="8.987527629208358"><ele>177.0</ele><time>2026-04-19T12:12:36.998Z</time></trkpt><trkpt lat="44.895927693871734" lon="8.987481184230962"><ele>177.0</ele><time>2026-04-19T12:12:37.998Z</time></trkpt><trkpt lat="44.89584102320854" lon="8.98744102078574"><ele>177.0</ele><time>2026-04-19T12:12:38.998Z</time></trkpt><trkpt lat="44.895764558813596" lon="8.987407642554183"><ele>177.0</ele><time>2026-04-19T12:12:39.998Z</time></trkpt><trkpt lat="44.89568212154104" lon="8.98737737414058"><ele>177.0</ele><time>2026-04-19T12:12:40.998Z</time></trkpt><trkpt lat="44.89560602839472" lon="8.987347805975674"><ele>176.66666666666666</ele><time>2026-04-19T12:12:41.998Z</time></trkpt><trkpt lat="44.8955220837743" lon="8.98732489442928"><ele>176.33333333333334</ele><time>2026-04-19T12:12:42.998Z</time></trkpt><trkpt lat="44.895434946245956" lon="8.98729851018708"><ele>176.0</ele><time>2026-04-19T12:12:43.998Z</time></trkpt><trkpt lat="44.895349909802896" lon="8.987270317868994"><ele>175.66666666666669</ele><time>2026-04-19T12:12:44.998Z</time></trkpt><trkpt lat="44.89526203236825" lon="8.987232276915828"><ele>175.33333333333334</ele><time>2026-04-19T12:12:45.998Z</time></trkpt><trkpt lat="44.895182728871525" lon="8.987183950881061"><ele>175.0</ele><time>2026-04-19T12:12:46.998Z</time></trkpt><trkpt lat="44.89510943534645" lon="8.987112326589191"><ele>175.0</ele><time>2026-04-19T12:12:47.998Z</time></trkpt><trkpt lat="44.89504619372673" lon="8.987024599117053"><ele>175.0</ele><time>2026-04-19T12:12:48.998Z</time></trkpt><trkpt lat="44.89500580736636" lon="8.98691940637485"><ele>175.0</ele><time>2026-04-19T12:12:49.998Z</time></trkpt><trkpt lat="44.89496575469176" lon="8.986799752768105"><ele>175.0</ele><time>2026-04-19T12:12:50.998Z</time></trkpt><trkpt lat="44.894936904253555" lon="8.986679216609216"><ele>175.0</ele><time>2026-04-19T12:12:51.998Z</time></trkpt><trkpt lat="44.89490850863667" lon="8.986562544491921"><ele>175.0</ele><time>2026-04-19T12:12:52.998Z</time></trkpt><trkpt lat="44.894874978223555" lon="8.98646948666085"><ele>175.0</ele><time>2026-04-19T12:12:53.998Z</time></trkpt><trkpt lat="44.89483749423689" lon="8.986385048144966"><ele>175.0</ele><time>2026-04-19T12:12:54.998Z</time></trkpt><trkpt lat="44.89480040492973" lon="8.986285083065615"><ele>175.0</ele><time>2026-04-19T12:12:55.998Z</time></trkpt><trkpt lat="44.89475265671051" lon="8.986215312330197"><ele>175.0</ele><time>2026-04-19T12:12:56.998Z</time></trkpt><trkpt lat="44.894694054611755" lon="8.986155817104457"><ele>175.0</ele><time>2026-04-19T12:12:57.998Z</time></trkpt><trkpt lat="44.89462312169345" lon="8.98611235068761"><ele>175.0</ele><time>2026-04-19T12:12:58.998Z</time></trkpt><trkpt lat="44.8945446109757" lon="8.986090751193691"><ele>175.0</ele><time>2026-04-19T12:12:59.998Z</time></trkpt><trkpt lat="44.89446663557878" lon="8.98607049298687"><ele>175.0</ele><time>2026-04-19T12:13:00.998Z</time></trkpt><trkpt lat="44.894401775816" lon="8.986051718544562"><ele>175.0</ele><time>2026-04-19T12:13:01.998Z</time></trkpt><trkpt lat="44.89430806350112" lon="8.986025491462332"><ele>175.0</ele><time>2026-04-19T12:13:02.998Z</time></trkpt><trkpt lat="44.894237879840425" lon="8.985998501797292"><ele>175.0</ele><time>2026-04-19T12:13:03.998Z</time></trkpt><trkpt lat="44.89414975891431" lon="8.985970434785783"><ele>175.0</ele><time>2026-04-19T12:13:04.998Z</time></trkpt><trkpt lat="44.894061755021234" lon="8.985931544689459"><ele>175.0</ele><time>2026-04-19T12:13:05.998Z</time></trkpt><trkpt lat="44.89398207154894" lon="8.985889309250679"><ele>175.4</ele><time>2026-04-19T12:13:06.998Z</time></trkpt><trkpt lat="44.89390661547318" lon="8.985842688628425"><ele>175.8</ele><time>2026-04-19T12:13:07.998Z</time></trkpt><trkpt lat="44.89382804308801" lon="8.98577559841812"><ele>176.2</ele><time>2026-04-19T12:13:08.998Z</time></trkpt><trkpt lat="44.89375128880224" lon="8.985690674410742"><ele>176.6</ele><time>2026-04-19T12:13:09.998Z</time></trkpt><trkpt lat="44.89368100997738" lon="8.985594008174184"><ele>177.0</ele><time>2026-04-19T12:13:10.998Z</time></trkpt><trkpt lat="44.89361793779918" lon="8.985486658232617"><ele>177.0</ele><time>2026-04-19T12:13:11.998Z</time></trkpt><trkpt lat="44.89356615577684" lon="8.985370393819085"><ele>177.0</ele><time>2026-04-19T12:13:12.998Z</time></trkpt><trkpt lat="44.893510865479556" lon="8.985251645485748"><ele>177.0</ele><time>2026-04-19T12:13:14Z</time></trkpt><trkpt lat="44.893456660818096" lon="8.985141941023787"><ele>177.0</ele><time>2026-04-19T12:13:15Z</time></trkpt><trkpt lat="44.893398025793296" lon="8.985041152568082"><ele>177.0</ele><time>2026-04-19T12:13:16Z</time></trkpt><trkpt lat="44.893339700010955" lon="8.98492059664705"><ele>177.0</ele><time>2026-04-19T12:13:17Z</time></trkpt><trkpt lat="44.89328234292883" lon="8.984811851269768"><ele>177.0</ele><time>2026-04-19T12:13:18Z</time></trkpt><trkpt lat="44.89322405487494" lon="8.984710664778529"><ele>177.0</ele><time>2026-04-19T12:13:19Z</time></trkpt><trkpt lat="44.89316189657021" lon="8.984612964561274"><ele>177.0</ele><time>2026-04-19T12:13:20Z</time></trkpt><trkpt lat="44.89310150290159" lon="8.984525121107067"><ele>177.0</ele><time>2026-04-19T12:13:21Z</time></trkpt><trkpt lat="44.893037556378275" lon="8.984444274848874"><ele>177.0</ele><time>2026-04-19T12:13:22Z</time></trkpt><trkpt lat="44.89298276954249" lon="8.984379236897533"><ele>177.0</ele><time>2026-04-19T12:13:23Z</time></trkpt><trkpt lat="44.89292252414193" lon="8.984312140581237"><ele>177.0</ele><time>2026-04-19T12:13:24Z</time></trkpt><trkpt lat="44.89285813255989" lon="8.984237654341545"><ele>177.0</ele><time>2026-04-19T12:13:25Z</time></trkpt><trkpt lat="44.89280572944337" lon="8.984147049857484"><ele>177.0</ele><time>2026-04-19T12:13:26Z</time></trkpt><trkpt lat="44.89277287383806" lon="8.984036580092557"><ele>177.0</ele><time>2026-04-19T12:13:27Z</time></trkpt><trkpt lat="44.89274219157058" lon="8.983916026406318"><ele>177.0</ele><time>2026-04-19T12:13:28Z</time></trkpt><trkpt lat="44.892695408868725" lon="8.983807511616074"><ele>177.0</ele><time>2026-04-19T12:13:29Z</time></trkpt><trkpt lat="44.89263915297484" lon="8.983712934254028"><ele>177.0</ele><time>2026-04-19T12:13:30Z</time></trkpt><trkpt lat="44.89258199158917" lon="8.98362906304749"><ele>177.0</ele><time>2026-04-19T12:13:31Z</time></trkpt><trkpt lat="44.89251990933418" lon="8.983539270753404"><ele>177.0</ele><time>2026-04-19T12:13:32Z</time></trkpt><trkpt lat="44.89246451658137" lon="8.983459054180578"><ele>177.0</ele><time>2026-04-19T12:13:33Z</time></trkpt><trkpt lat="44.8924030960832" lon="8.983372889097978"><ele>177.16666666666666</ele><time>2026-04-19T12:13:34Z</time></trkpt><trkpt lat="44.89235215775308" lon="8.98329683008324"><ele>177.33333333333334</ele><time>2026-04-19T12:13:35Z</time></trkpt><trkpt lat="44.89230517411505" lon="8.9832253917741"><ele>177.5</ele><time>2026-04-19T12:13:36Z</time></trkpt><trkpt lat="44.89225740051447" lon="8.98315449731328"><ele>177.66666666666669</ele><time>2026-04-19T12:13:37Z</time></trkpt><trkpt lat="44.89217696983381" lon="8.983035875996586"><ele>177.83333333333334</ele><time>2026-04-19T12:13:39Z</time></trkpt><trkpt lat="44.8921364797357" lon="8.982940387549418"><ele>178.0</ele><time>2026-04-19T12:13:41Z</time></trkpt><trkpt lat="44.89213564178908" lon="8.98281944214067"><ele>178.0</ele><time>2026-04-19T12:13:44Z</time></trkpt><trkpt lat="44.89207103809505" lon="8.982723034373592"><ele>178.0</ele><time>2026-04-19T12:13:46Z</time></trkpt><trkpt lat="44.892001349519305" lon="8.982709286500054"><ele>178.0</ele><time>2026-04-19T12:13:47Z</time></trkpt><trkpt lat="44.89191934686416" lon="8.982687851604574"><ele>178.0</ele><time>2026-04-19T12:13:48Z</time></trkpt><trkpt lat="44.89184758771067" lon="8.982651750642667"><ele>178.0</ele><time>2026-04-19T12:13:49Z</time></trkpt><trkpt lat="44.89173095057604" lon="8.982548995630818"><ele>178.42857142857142</ele><time>2026-04-19T12:13:51Z</time></trkpt><trkpt lat="44.89166585931342" lon="8.982485851290491"><ele>178.85714285714286</ele><time>2026-04-19T12:13:52Z</time></trkpt><trkpt lat="44.89160119900164" lon="8.9824240367999"><ele>179.28571428571428</ele><time>2026-04-19T12:13:53Z</time></trkpt><trkpt lat="44.891546565329264" lon="8.982362888663006"><ele>179.71428571428572</ele><time>2026-04-19T12:13:54Z</time></trkpt><trkpt lat="44.891494477964365" lon="8.98230536759529"><ele>180.14285714285714</ele><time>2026-04-19T12:13:55Z</time></trkpt><trkpt lat="44.891438677196085" lon="8.982247011947708"><ele>180.57142857142856</ele><time>2026-04-19T12:13:56Z</time></trkpt><trkpt lat="44.89137458223085" lon="8.982216741313485"><ele>181.0</ele><time>2026-04-19T12:13:57Z</time></trkpt><trkpt lat="44.89129993852017" lon="8.982220097223019"><ele>181.0</ele><time>2026-04-19T12:13:58Z</time></trkpt><trkpt lat="44.89122146617465" lon="8.982257838804175"><ele>181.0</ele><time>2026-04-19T12:13:59Z</time></trkpt><trkpt lat="44.89115840195272" lon="8.98231296373623"><ele>181.0</ele><time>2026-04-19T12:14:00Z</time></trkpt><trkpt lat="44.8910766752006" lon="8.982387159343716"><ele>181.0</ele><time>2026-04-19T12:14:02Z</time></trkpt><trkpt lat="44.89102300520858" lon="8.982436170487558"><ele>181.0</ele><time>2026-04-19T12:14:04.999Z</time></trkpt><trkpt lat="44.89095707298891" lon="8.982542661250696"><ele>181.0</ele><time>2026-04-19T12:14:06.999Z</time></trkpt><trkpt lat="44.89086793769017" lon="8.982652195158906"><ele>181.20000000000002</ele><time>2026-04-19T12:14:08.999Z</time></trkpt><trkpt lat="44.89079052222694" lon="8.982761372818759"><ele>181.4</ele><time>2026-04-19T12:14:10.999Z</time></trkpt><trkpt lat="44.89072274594422" lon="8.982848013714227"><ele>181.6</ele><time>2026-04-19T12:14:12.999Z</time></trkpt><trkpt lat="44.89064670531713" lon="8.98286368913441"><ele>181.8</ele><time>2026-04-19T12:14:15.999Z</time></trkpt><trkpt lat="44.89054231594097" lon="8.982837069250378"><ele>182.0</ele><time>2026-04-19T12:14:18.999Z</time></trkpt><trkpt lat="44.89043722115143" lon="8.982786400285978"><ele>182.0</ele><time>2026-04-19T12:14:20.999Z</time></trkpt><trkpt lat="44.8903253973889" lon="8.98274523731727"><ele>182.0</ele><time>2026-04-19T12:14:22.999Z</time></trkpt><trkpt lat="44.89026434456752" lon="8.982718489517937"><ele>182.0</ele><time>2026-04-19T12:14:23.999Z</time></trkpt><trkpt lat="44.89020425209531" lon="8.982688398446461"><ele>182.0</ele><time>2026-04-19T12:14:24.999Z</time></trkpt><trkpt lat="44.89009025903292" lon="8.982634906800781"><ele>182.0</ele><time>2026-04-19T12:14:26.999Z</time></trkpt><trkpt lat="44.8900296736198" lon="8.982607807070016"><ele>182.0</ele><time>2026-04-19T12:14:27.999Z</time></trkpt><trkpt lat="44.88996773911714" lon="8.982571914490885"><ele>182.6</ele><time>2026-04-19T12:14:28.999Z</time></trkpt><trkpt lat="44.88984437187223" lon="8.98252396271597"><ele>183.2</ele><time>2026-04-19T12:14:30.999Z</time></trkpt><trkpt lat="44.88975165091587" lon="8.982502243209634"><ele>183.8</ele><time>2026-04-19T12:14:32.999Z</time></trkpt><trkpt lat="44.8896483552759" lon="8.982534004115221"><ele>184.4</ele><time>2026-04-19T12:14:34.999Z</time></trkpt><trkpt lat="44.88956892106286" lon="8.982580403310218"><ele>185.0</ele><time>2026-04-19T12:14:36.999Z</time></trkpt><trkpt lat="44.88947348905427" lon="8.982585780416215"><ele>185.0</ele><time>2026-04-19T12:14:38.999Z</time></trkpt><trkpt lat="44.889399732969615" lon="8.982534227930756"><ele>185.0</ele><time>2026-04-19T12:14:40.999Z</time></trkpt><trkpt lat="44.88929943993145" lon="8.982498522215483"><ele>185.0</ele><time>2026-04-19T12:14:42.999Z</time></trkpt><trkpt lat="44.88920190560652" lon="8.982460175711738"><ele>185.0</ele><time>2026-04-19T12:14:44.999Z</time></trkpt><trkpt lat="44.88909665144426" lon="8.982433926694274"><ele>185.0</ele><time>2026-04-19T12:14:46.999Z</time></trkpt><trkpt lat="44.88901242041655" lon="8.982426481910359"><ele>185.0</ele><time>2026-04-19T12:14:48.999Z</time></trkpt><trkpt lat="44.8888963515042" lon="8.982431603246646"><ele>185.0</ele><time>2026-04-19T12:14:50.998Z</time></trkpt><trkpt lat="44.88881276225043" lon="8.982431888599738"><ele>185.0</ele><time>2026-04-19T12:14:52.998Z</time></trkpt><trkpt lat="44.8887302926609" lon="8.982472504853474"><ele>185.0</ele><time>2026-04-19T12:14:54.998Z</time></trkpt><trkpt lat="44.88867637682481" lon="8.982565546222528"><ele>185.0</ele><time>2026-04-19T12:14:56.998Z</time></trkpt><trkpt lat="44.888632101135414" lon="8.982629843389617"><ele>185.0</ele><time>2026-04-19T12:14:58.998Z</time></trkpt><trkpt lat="44.888547495454056" lon="8.982593804391989"><ele>185.0</ele><time>2026-04-19T12:15:01.998Z</time></trkpt><trkpt lat="44.888513440947975" lon="8.982483882825687"><ele>185.0</ele><time>2026-04-19T12:15:03.998Z</time></trkpt><trkpt lat="44.888405286948974" lon="8.982460232271075"><ele>185.0</ele><time>2026-04-19T12:15:05.998Z</time></trkpt><trkpt lat="44.88833304575354" lon="8.982466023787927"><ele>185.0</ele><time>2026-04-19T12:15:06.998Z</time></trkpt><trkpt lat="44.88826041926085" lon="8.98247653248068"><ele>185.0</ele><time>2026-04-19T12:15:07.998Z</time></trkpt><trkpt lat="44.88822323496989" lon="8.982378950683168"><ele>185.0</ele><time>2026-04-19T12:15:08.998Z</time></trkpt><trkpt lat="44.88816137104019" lon="8.982344597672697"><ele>184.33333333333331</ele><time>2026-04-19T12:15:09.998Z</time></trkpt><trkpt lat="44.888093164351424" lon="8.982312851174369"><ele>183.66666666666666</ele><time>2026-04-19T12:15:10.998Z</time></trkpt><trkpt lat="44.888024297894546" lon="8.982291949787983"><ele>183.0</ele><time>2026-04-19T12:15:11.998Z</time></trkpt><trkpt lat="44.88796015032944" lon="8.98226652125272"><ele>182.33333333333334</ele><time>2026-04-19T12:15:12.998Z</time></trkpt><trkpt lat="44.887852138611294" lon="8.982222660422625"><ele>181.66666666666669</ele><time>2026-04-19T12:15:14.998Z</time></trkpt><trkpt lat="44.887788683129905" lon="8.98219696387077"><ele>181.0</ele><time>2026-04-19T12:15:16.998Z</time></trkpt><trkpt lat="44.88773766425303" lon="8.982261836945119"><ele>181.0</ele><time>2026-04-19T12:15:20Z</time></trkpt><trkpt lat="44.887683570245436" lon="8.982316915039357"><ele>181.0</ele><time>2026-04-19T12:15:21Z</time></trkpt><trkpt lat="44.887625476725454" lon="8.98239678574414"><ele>181.0</ele><time>2026-04-19T12:15:22Z</time></trkpt><trkpt lat="44.887563273266814" lon="8.982497931590679"><ele>181.0</ele><time>2026-04-19T12:15:23Z</time></trkpt><trkpt lat="44.88750637609943" lon="8.982599801318894"><ele>181.0</ele><time>2026-04-19T12:15:24Z</time></trkpt><trkpt lat="44.887451029981754" lon="8.982714019858934"><ele>181.0</ele><time>2026-04-19T12:15:25Z</time></trkpt><trkpt lat="44.88739190283839" lon="8.98282067083842"><ele>181.0</ele><time>2026-04-19T12:15:26Z</time></trkpt><trkpt lat="44.88734609948061" lon="8.982905771056243"><ele>181.0</ele><time>2026-04-19T12:15:27Z</time></trkpt><trkpt lat="44.88729969016866" lon="8.98298378319486"><ele>181.0</ele><time>2026-04-19T12:15:28Z</time></trkpt><trkpt lat="44.887222608448276" lon="8.983100897115092"><ele>181.0</ele><time>2026-04-19T12:15:30Z</time></trkpt><trkpt lat="44.887177188199466" lon="8.983188217623155"><ele>181.0</ele><time>2026-04-19T12:15:32Z</time></trkpt><trkpt lat="44.887141917461236" lon="8.983264401268826"><ele>181.0</ele><time>2026-04-19T12:15:33Z</time></trkpt><trkpt lat="44.88709707245519" lon="8.983354529404185"><ele>180.8</ele><time>2026-04-19T12:15:34Z</time></trkpt><trkpt lat="44.88703919189723" lon="8.983463053324918"><ele>180.60000000000002</ele><time>2026-04-19T12:15:35Z</time></trkpt><trkpt lat="44.88698004711725" lon="8.983569209045447"><ele>180.4</ele><time>2026-04-19T12:15:36Z</time></trkpt><trkpt lat="44.8869155682658" lon="8.983683928241387"><ele>180.2</ele><time>2026-04-19T12:15:37Z</time></trkpt><trkpt lat="44.88685385406698" lon="8.983803343258472"><ele>180.0</ele><time>2026-04-19T12:15:38Z</time></trkpt><trkpt lat="44.88678846507942" lon="8.983918714920373"><ele>180.0</ele><time>2026-04-19T12:15:39Z</time></trkpt><trkpt lat="44.88672879374791" lon="8.984029838193948"><ele>180.0</ele><time>2026-04-19T12:15:40Z</time></trkpt><trkpt lat="44.88665725446443" lon="8.984153416180972"><ele>180.0</ele><time>2026-04-19T12:15:41Z</time></trkpt><trkpt lat="44.886586771153574" lon="8.984282705584056"><ele>180.0</ele><time>2026-04-19T12:15:42Z</time></trkpt><trkpt lat="44.88651416890065" lon="8.984419818505508"><ele>180.0</ele><time>2026-04-19T12:15:43Z</time></trkpt><trkpt lat="44.88644237226719" lon="8.984559283898673"><ele>180.0</ele><time>2026-04-19T12:15:44Z</time></trkpt><trkpt lat="44.88636559236147" lon="8.984702942640647"><ele>180.0</ele><time>2026-04-19T12:15:45Z</time></trkpt><trkpt lat="44.8862885654626" lon="8.984838524664498"><ele>180.0</ele><time>2026-04-19T12:15:46Z</time></trkpt><trkpt lat="44.886210946605324" lon="8.984984552937947"><ele>180.0</ele><time>2026-04-19T12:15:47Z</time></trkpt><trkpt lat="44.88613411140902" lon="8.985125826367518"><ele>180.25</ele><time>2026-04-19T12:15:48Z</time></trkpt><trkpt lat="44.88605143054868" lon="8.985266083666353"><ele>180.5</ele><time>2026-04-19T12:15:49Z</time></trkpt><trkpt lat="44.88597470126693" lon="8.985406564788441"><ele>180.75</ele><time>2026-04-19T12:15:50Z</time></trkpt><trkpt lat="44.885893570445916" lon="8.985549359924313"><ele>181.0</ele><time>2026-04-19T12:15:51Z</time></trkpt><trkpt lat="44.885814576731015" lon="8.98568673277341"><ele>181.0</ele><time>2026-04-19T12:15:52Z</time></trkpt><trkpt lat="44.88573474435298" lon="8.985830770281966"><ele>181.0</ele><time>2026-04-19T12:15:53Z</time></trkpt><trkpt lat="44.88565946953544" lon="8.985972926317608"><ele>181.0</ele><time>2026-04-19T12:15:54Z</time></trkpt><trkpt lat="44.88558626544832" lon="8.986115312564703"><ele>181.0</ele><time>2026-04-19T12:15:55Z</time></trkpt><trkpt lat="44.88551532866744" lon="8.986251104532144"><ele>181.0</ele><time>2026-04-19T12:15:56Z</time></trkpt><trkpt lat="44.88544073387336" lon="8.986384760078048"><ele>181.0</ele><time>2026-04-19T12:15:57Z</time></trkpt><trkpt lat="44.88537074681135" lon="8.986515311146213"><ele>181.0</ele><time>2026-04-19T12:15:58Z</time></trkpt><trkpt lat="44.88530161434861" lon="8.986645597636286"><ele>181.0</ele><time>2026-04-19T12:15:59Z</time></trkpt><trkpt lat="44.885232976189975" lon="8.986781576372934"><ele>181.0</ele><time>2026-04-19T12:16:00Z</time></trkpt><trkpt lat="44.88516254665674" lon="8.986911631334483"><ele>181.0</ele><time>2026-04-19T12:16:01Z</time></trkpt><trkpt lat="44.88509665796136" lon="8.987032496940381"><ele>181.0</ele><time>2026-04-19T12:16:02Z</time></trkpt><trkpt lat="44.885038261396275" lon="8.987141981898548"><ele>181.0</ele><time>2026-04-19T12:16:03Z</time></trkpt><trkpt lat="44.88498323780642" lon="8.987243494097589"><ele>181.0</ele><time>2026-04-19T12:16:04Z</time></trkpt><trkpt lat="44.88494261653338" lon="8.98732755978199"><ele>181.0</ele><time>2026-04-19T12:16:05Z</time></trkpt><trkpt lat="44.884903647105304" lon="8.987407314814508"><ele>181.0</ele><time>2026-04-19T12:16:06Z</time></trkpt><trkpt lat="44.88486681761973" lon="8.987487100465351"><ele>181.0</ele><time>2026-04-19T12:16:07Z</time></trkpt><trkpt lat="44.884800090083864" lon="8.987625011490369"><ele>181.0</ele><time>2026-04-19T12:16:08.999Z</time></trkpt><trkpt lat="44.88474311815363" lon="8.987740800514223"><ele>181.0</ele><time>2026-04-19T12:16:10.999Z</time></trkpt><trkpt lat="44.88469979267916" lon="8.987825790488033"><ele>181.0</ele><time>2026-04-19T12:16:12.999Z</time></trkpt><trkpt lat="44.88463914542531" lon="8.987895163746122"><ele>181.0</ele><time>2026-04-19T12:16:14.999Z</time></trkpt><trkpt lat="44.88456088326395" lon="8.988021722760525"><ele>181.0</ele><time>2026-04-19T12:16:16.999Z</time></trkpt><trkpt lat="44.88452251070175" lon="8.98810153378936"><ele>181.0</ele><time>2026-04-19T12:16:17.999Z</time></trkpt><trkpt lat="44.884485359154276" lon="8.988178314782747"><ele>181.0</ele><time>2026-04-19T12:16:18.999Z</time></trkpt><trkpt lat="44.884434394786595" lon="8.988276043651112"><ele>181.0</ele><time>2026-04-19T12:16:19.999Z</time></trkpt><trkpt lat="44.88439239219365" lon="8.988364731628675"><ele>181.0</ele><time>2026-04-19T12:16:20.999Z</time></trkpt><trkpt lat="44.884346244663554" lon="8.988443397164366"><ele>181.0</ele><time>2026-04-19T12:16:21.999Z</time></trkpt><trkpt lat="44.88429221472439" lon="8.988547886367337"><ele>181.0</ele><time>2026-04-19T12:16:22.999Z</time></trkpt><trkpt lat="44.88424101735066" lon="8.98864011524569"><ele>181.0</ele><time>2026-04-19T12:16:23.999Z</time></trkpt><trkpt lat="44.884196148808556" lon="8.98872955564548"><ele>181.0</ele><time>2026-04-19T12:16:24.999Z</time></trkpt><trkpt lat="44.88414036949302" lon="8.988836911637037"><ele>181.0</ele><time>2026-04-19T12:16:25.999Z</time></trkpt><trkpt lat="44.88409135266212" lon="8.988928875062278"><ele>181.0</ele><time>2026-04-19T12:16:26.999Z</time></trkpt><trkpt lat="44.884039138874314" lon="8.989029305054501"><ele>181.0</ele><time>2026-04-19T12:16:27.999Z</time></trkpt><trkpt lat="44.883989829439955" lon="8.989114320100638"><ele>181.0</ele><time>2026-04-19T12:16:28.999Z</time></trkpt><trkpt lat="44.88394315420391" lon="8.989198418944847"><ele>181.0</ele><time>2026-04-19T12:16:29.999Z</time></trkpt><trkpt lat="44.88389852806363" lon="8.989286856760668"><ele>181.0</ele><time>2026-04-19T12:16:30.999Z</time></trkpt><trkpt lat="44.88384830465143" lon="8.989383463222202"><ele>181.0</ele><time>2026-04-19T12:16:31.999Z</time></trkpt><trkpt lat="44.88379793635572" lon="8.989477836039498"><ele>181.0</ele><time>2026-04-19T12:16:32.999Z</time></trkpt><trkpt lat="44.88374418854443" lon="8.989573954978242"><ele>181.0</ele><time>2026-04-19T12:16:33.999Z</time></trkpt><trkpt lat="44.88369013383659" lon="8.989672951488854"><ele>181.0</ele><time>2026-04-19T12:16:34.999Z</time></trkpt><trkpt lat="44.883637145378614" lon="8.989761605856364"><ele>181.0</ele><time>2026-04-19T12:16:35.999Z</time></trkpt><trkpt lat="44.88357980673528" lon="8.989860002116552"><ele>181.0</ele><time>2026-04-19T12:16:36.999Z</time></trkpt><trkpt lat="44.88352229316303" lon="8.98996385278427"><ele>181.0</ele><time>2026-04-19T12:16:37.999Z</time></trkpt><trkpt lat="44.8834677952026" lon="8.990056713920607"><ele>181.0</ele><time>2026-04-19T12:16:38.999Z</time></trkpt><trkpt lat="44.88341158919667" lon="8.990158062655775"><ele>181.4</ele><time>2026-04-19T12:16:39.999Z</time></trkpt><trkpt lat="44.8833613844472" lon="8.990252234171317"><ele>181.8</ele><time>2026-04-19T12:16:40.999Z</time></trkpt><trkpt lat="44.88330510116629" lon="8.99036038590384"><ele>182.20000000000002</ele><time>2026-04-19T12:16:41.999Z</time></trkpt><trkpt lat="44.88324796443168" lon="8.990466320787723"><ele>182.60000000000002</ele><time>2026-04-19T12:16:42.999Z</time></trkpt><trkpt lat="44.883190829968584" lon="8.990566293870994"><ele>183.0</ele><time>2026-04-19T12:16:43.999Z</time></trkpt><trkpt lat="44.883132546756784" lon="8.990656228546042"><ele>183.0</ele><time>2026-04-19T12:16:44.999Z</time></trkpt><trkpt lat="44.88306690476021" lon="8.990749439268587"><ele>183.0</ele><time>2026-04-19T12:16:45.999Z</time></trkpt><trkpt lat="44.883004012027904" lon="8.990834537859694"><ele>183.0</ele><time>2026-04-19T12:16:46.999Z</time></trkpt><trkpt lat="44.88294451590909" lon="8.990924140705388"><ele>183.0</ele><time>2026-04-19T12:16:47.999Z</time></trkpt><trkpt lat="44.88287431591416" lon="8.99102183745463"><ele>183.0</ele><time>2026-04-19T12:16:48.999Z</time></trkpt><trkpt lat="44.88280785911893" lon="8.991110727506712"><ele>183.2</ele><time>2026-04-19T12:16:49.999Z</time></trkpt><trkpt lat="44.882745360891704" lon="8.991186672406915"><ele>183.4</ele><time>2026-04-19T12:16:50.999Z</time></trkpt><trkpt lat="44.882672326213594" lon="8.991283358394258"><ele>183.6</ele><time>2026-04-19T12:16:51.999Z</time></trkpt><trkpt lat="44.882606624596264" lon="8.991363592881495"><ele>183.79999999999998</ele><time>2026-04-19T12:16:52.999Z</time></trkpt><trkpt lat="44.882544010622595" lon="8.99144277497895"><ele>184.0</ele><time>2026-04-19T12:16:53.999Z</time></trkpt><trkpt lat="44.88244526045884" lon="8.99156407895715"><ele>184.0</ele><time>2026-04-19T12:16:55.998Z</time></trkpt><trkpt lat="44.882390617706804" lon="8.991635934181426"><ele>184.0</ele><time>2026-04-19T12:16:56.998Z</time></trkpt><trkpt lat="44.8823189115591" lon="8.991732554476146"><ele>185.0</ele><time>2026-04-19T12:16:58.998Z</time></trkpt></trkseg></trk></gpx>